Observation data for Boys Ranch on 07/13/2018      Previous  Date  Next       Current Mesonet Observations  Soil Data  Daily Summary Page  Observations in Plain Language
KBY1 130500Z 14005KT 26/16 A3011 RMK A01 T02590164  RH  056%=      5-min Rain = 0
KBY1 130501Z 15005KT 26/16 A3011 RMK A01 T02580163  RH  056%=      5-min Rain = 0
KBY1 130502Z 15005KT 26/16 A3011 RMK A01 T02580163  RH  056%=      5-min Rain = 0
KBY1 130503Z 14005KT 26/16 A3011 RMK A01 T02590164  RH  056%=      5-min Rain = 0
KBY1 130504Z 14003KT 26/16 A3011 RMK A01 T02580164  RH  056%=      5-min Rain = 0
KBY1 130505Z 14003KT 26/16 A3012 RMK A01 T02590164  RH  056%=      5-min Rain = 0
KBY1 130506Z 16003KT 26/16 A3012 RMK A01 T02580164  RH  056%=      5-min Rain = 0
KBY1 130507Z 15005KT 26/16 A3012 RMK A01 T02580164  RH  056%=      5-min Rain = 0
KBY1 130508Z 14003KT 26/16 A3011 RMK A01 T02580164  RH  056%=      5-min Rain = 0
KBY1 130509Z 14003KT 26/16 A3011 RMK A01 T02580164  RH  056%=      5-min Rain = 0
KBY1 130510Z 14004KT 26/16 A3011 RMK A01 T02580164  RH  056%=      5-min Rain = 0
KBY1 130511Z 13004KT 26/16 A3011 RMK A01 T02580164  RH  056%=      5-min Rain = 0
KBY1 130512Z 14004KT 26/16 A3011 RMK A01 T02580164  RH  056%=      5-min Rain = 0
KBY1 130513Z 12005KT 26/16 A3011 RMK A01 T02570164  RH  056%=      5-min Rain = 0
KBY1 130514Z 14005KT 26/16 A3011 RMK A01 T02570164  RH  056%=      5-min Rain = 0
KBY1 130515Z 14006KT 26/16 A3012 RMK A01 T02560164  RH  057%=      5-min Rain = 0
KBY1 130516Z 15004KT 26/16 A3012 RMK A01 T02560164  RH  057%=      5-min Rain = 0
KBY1 130517Z 14004KT 26/16 A3012 RMK A01 T02560164  RH  057%=      5-min Rain = 0
KBY1 130518Z 15004KT 26/16 A3012 RMK A01 T02560164  RH  057%=      5-min Rain = 0
KBY1 130519Z 14005KT 26/16 A3012 RMK A01 T02560164  RH  057%=      5-min Rain = 0
KBY1 130520Z 13006KT 26/16 A3012 RMK A01 T02560164  RH  057%=      5-min Rain = 0
KBY1 130521Z 15006KT 26/16 A3012 RMK A01 T02560164  RH  057%=      5-min Rain = 0
KBY1 130522Z 16006KT 26/16 A3012 RMK A01 T02560164  RH  057%=      5-min Rain = 0
KBY1 130523Z 15004KT 26/16 A3012 RMK A01 T02570164  RH  057%=      5-min Rain = 0
KBY1 130524Z 14004KT 26/16 A3012 RMK A01 T02570164  RH  057%=      5-min Rain = 0
KBY1 130525Z 13005KT 26/16 A3012 RMK A01 T02570164  RH  057%=      5-min Rain = 0
KBY1 130526Z 14004KT 26/16 A3012 RMK A01 T02570164  RH  057%=      5-min Rain = 0
KBY1 130527Z 14003KT 26/16 A3012 RMK A01 T02560164  RH  057%=      5-min Rain = 0
KBY1 130528Z 14003KT 26/16 A3012 RMK A01 T02570164  RH  057%=      5-min Rain = 0
KBY1 130529Z 13002KT 26/16 A3012 RMK A01 T02570164  RH  057%=      5-min Rain = 0
KBY1 130530Z 12004KT 26/16 A3012 RMK A01 T02570164  RH  057%=      5-min Rain = 0
KBY1 130531Z 11004KT 26/16 A3012 RMK A01 T02560164  RH  057%=      5-min Rain = 0
KBY1 130532Z 10004KT 26/16 A3012 RMK A01 T02560164  RH  057%=      5-min Rain = 0
KBY1 130533Z 11003KT 26/16 A3012 RMK A01 T02560164  RH  057%=      5-min Rain = 0
KBY1 130534Z 11004KT 26/16 A3012 RMK A01 T02560164  RH  057%=      5-min Rain = 0
KBY1 130535Z 08003KT 26/16 A3012 RMK A01 T02560164  RH  057%=      5-min Rain = 0
KBY1 130536Z 08003KT 26/17 A3012 RMK A01 T02560165  RH  057%=      5-min Rain = 0
KBY1 130537Z 08003KT 26/17 A3012 RMK A01 T02550165  RH  057%=      5-min Rain = 0
KBY1 130538Z 07004KT 25/17 A3012 RMK A01 T02540165  RH  058%=      5-min Rain = 0
KBY1 130539Z 07003KT 25/17 A3012 RMK A01 T02530165  RH  058%=      5-min Rain = 0
KBY1 130540Z 07003KT 25/17 A3012 RMK A01 T02530165  RH  058%=      5-min Rain = 0
KBY1 130541Z 07003KT 25/17 A3012 RMK A01 T02530165  RH  058%=      5-min Rain = 0
KBY1 130542Z 09003KT 25/17 A3012 RMK A01 T02530165  RH  058%=      5-min Rain = 0
KBY1 130543Z 09003KT 25/16 A3012 RMK A01 T02530164  RH  058%=      5-min Rain = 0
KBY1 130544Z 10002KT 25/17 A3012 RMK A01 T02530165  RH  058%=      5-min Rain = 0
KBY1 130545Z 07002KT 25/17 A3012 RMK A01 T02530165  RH  058%=      5-min Rain = 0
KBY1 130546Z 07004KT 25/17 A3012 RMK A01 T02530165  RH  058%=      5-min Rain = 0
KBY1 130547Z 07004KT 25/17 A3012 RMK A01 T02530165  RH  058%=      5-min Rain = 0
KBY1 130548Z 05002KT 25/16 A3012 RMK A01 T02540164  RH  058%=      5-min Rain = 0
KBY1 130549Z 06002KT 25/17 A3012 RMK A01 T02540165  RH  058%=      5-min Rain = 0
KBY1 130550Z 05002KT 25/17 A3012 RMK A01 T02540165  RH  058%=      5-min Rain = 0
KBY1 130551Z 07003KT 25/17 A3012 RMK A01 T02540165  RH  058%=      5-min Rain = 0
KBY1 130552Z 10003KT 25/17 A3012 RMK A01 T02540165  RH  058%=      5-min Rain = 0
KBY1 130553Z 09003KT 25/17 A3011 RMK A01 T02540165  RH  058%=      5-min Rain = 0
KBY1 130554Z 09003KT 25/17 A3011 RMK A01 T02530165  RH  058%=      5-min Rain = 0
KBY1 130555Z 10003KT 25/17 A3011 RMK A01 T02530165  RH  058%=      5-min Rain = 0
KBY1 130556Z 09002KT 25/17 A3011 RMK A01 T02530165  RH  058%=      5-min Rain = 0
KBY1 130557Z 10003KT 25/17 A3011 RMK A01 T02520165  RH  059%=      5-min Rain = 0
KBY1 130558Z 09003KT 25/17 A3011 RMK A01 T02520166  RH  059%=      5-min Rain = 0
KBY1 130559Z 11002KT 25/17 A3011 RMK A01 T02510166  RH  059%=      5-min Rain = 0
KBY1 130600Z 09003KT 25/17 A3011 RMK A01 T02510165  RH  059%=      5-min Rain = 0
KBY1 130601Z 10004KT 25/17 A3011 RMK A01 T02510165  RH  059%=      5-min Rain = 0
KBY1 130602Z 09004KT 25/17 A3011 RMK A01 T02510165  RH  059%=      5-min Rain = 0
KBY1 130603Z 10004KT 25/17 A3011 RMK A01 T02510165  RH  059%=      5-min Rain = 0
KBY1 130604Z 10005KT 25/17 A3011 RMK A01 T02510165  RH  059%=      5-min Rain = 0
KBY1 130605Z 12006KT 25/16 A3011 RMK A01 T02500164  RH  059%=      5-min Rain = 0
KBY1 130606Z 11004KT 25/16 A3011 RMK A01 T02510164  RH  058%=      5-min Rain = 0
KBY1 130607Z 11005KT 25/17 A3011 RMK A01 T02520165  RH  058%=      5-min Rain = 0
KBY1 130608Z 13005KT 25/16 A3011 RMK A01 T02520164  RH  058%=      5-min Rain = 0
KBY1 130609Z 12003KT 25/16 A3011 RMK A01 T02520164  RH  058%=      5-min Rain = 0
KBY1 130610Z 13004KT 25/16 A3011 RMK A01 T02530164  RH  058%=      5-min Rain = 0
KBY1 130611Z 12004KT 25/16 A3011 RMK A01 T02520164  RH  058%=      5-min Rain = 0
KBY1 130612Z 12005KT 25/16 A3011 RMK A01 T02520164  RH  058%=      5-min Rain = 0
KBY1 130613Z 11005KT 25/16 A3011 RMK A01 T02530164  RH  058%=      5-min Rain = 0
KBY1 130614Z 13006KT 25/16 A3011 RMK A01 T02530164  RH  058%=      5-min Rain = 0
KBY1 130615Z 14005KT 25/16 A3011 RMK A01 T02530164  RH  058%=      5-min Rain = 0
KBY1 130616Z 12005KT 25/16 A3011 RMK A01 T02530164  RH  058%=      5-min Rain = 0
KBY1 130617Z 11004KT 25/16 A3011 RMK A01 T02530164  RH  058%=      5-min Rain = 0
KBY1 130618Z 13005KT 25/16 A3011 RMK A01 T02530164  RH  058%=      5-min Rain = 0
KBY1 130619Z 14004KT 25/17 A3011 RMK A01 T02530165  RH  058%=      5-min Rain = 0
KBY1 130620Z 13004KT 25/17 A3011 RMK A01 T02520165  RH  058%=      5-min Rain = 0
KBY1 130621Z 14004KT 25/17 A3011 RMK A01 T02520165  RH  059%=      5-min Rain = 0
KBY1 130622Z 12005KT 25/17 A3011 RMK A01 T02520165  RH  058%=      5-min Rain = 0
KBY1 130623Z 14006KT 25/16 A3011 RMK A01 T02510164  RH  058%=      5-min Rain = 0
KBY1 130624Z 16004KT 25/16 A3011 RMK A01 T02510164  RH  058%=      5-min Rain = 0
KBY1 130625Z 17004KT 25/17 A3012 RMK A01 T02520165  RH  059%=      5-min Rain = 0
KBY1 130626Z 16002KT 25/17 A3012 RMK A01 T02510165  RH  059%=      5-min Rain = 0
KBY1 130627Z 14003KT 25/17 A3012 RMK A01 T02500165  RH  059%=      5-min Rain = 0
KBY1 130628Z 14003KT 25/17 A3012 RMK A01 T02500165  RH  059%=      5-min Rain = 0
KBY1 130629Z 14004KT 25/17 A3012 RMK A01 T02500165  RH  059%=      5-min Rain = 0
KBY1 130630Z 12002KT 25/17 A3012 RMK A01 T02500165  RH  059%=      5-min Rain = 0
KBY1 130631Z 12003KT 25/17 A3011 RMK A01 T02500165  RH  059%=      5-min Rain = 0
KBY1 130632Z 14004KT 25/17 A3012 RMK A01 T02500165  RH  059%=      5-min Rain = 0
KBY1 130633Z 14003KT 25/17 A3011 RMK A01 T02500165  RH  059%=      5-min Rain = 0
KBY1 130634Z 12003KT 25/17 A3011 RMK A01 T02510165  RH  059%=      5-min Rain = 0
KBY1 130635Z 13004KT 25/17 A3011 RMK A01 T02510165  RH  059%=      5-min Rain = 0
KBY1 130636Z 15003KT 25/17 A3011 RMK A01 T02510165  RH  059%=      5-min Rain = 0
KBY1 130637Z 15003KT 25/17 A3012 RMK A01 T02510165  RH  059%=      5-min Rain = 0
KBY1 130638Z 14002KT 25/17 A3011 RMK A01 T02510165  RH  059%=      5-min Rain = 0
KBY1 130639Z 14002KT 25/17 A3012 RMK A01 T02510165  RH  059%=      5-min Rain = 0
KBY1 130640Z 13002KT 25/17 A3012 RMK A01 T02500165  RH  059%=      5-min Rain = 0
KBY1 130641Z 11003KT 25/17 A3012 RMK A01 T02510165  RH  059%=      5-min Rain = 0
KBY1 130642Z 14002KT 25/17 A3012 RMK A01 T02510166  RH  059%=      5-min Rain = 0
KBY1 130643Z 12002KT 25/17 A3012 RMK A01 T02510165  RH  059%=      5-min Rain = 0
KBY1 130644Z 10003KT 25/17 A3012 RMK A01 T02510166  RH  059%=      5-min Rain = 0
KBY1 130645Z 13004KT 25/17 A3012 RMK A01 T02510166  RH  059%=      5-min Rain = 0
KBY1 130646Z 12005KT 25/16 A3012 RMK A01 T02510164  RH  059%=      5-min Rain = 0
KBY1 130647Z 12005KT 25/17 A3012 RMK A01 T02520165  RH  058%=      5-min Rain = 0
KBY1 130648Z 13005KT 25/17 A3012 RMK A01 T02520165  RH  058%=      5-min Rain = 0
KBY1 130649Z 13005KT 25/16 A3012 RMK A01 T02520164  RH  058%=      5-min Rain = 0
KBY1 130650Z 13006KT 25/16 A3011 RMK A01 T02520163  RH  058%=      5-min Rain = 0
KBY1 130651Z 13005KT 25/16 A3011 RMK A01 T02530163  RH  057%=      5-min Rain = 0
KBY1 130652Z 14007KT 25/16 A3011 RMK A01 T02530163  RH  057%=      5-min Rain = 0
KBY1 130653Z 13005KT 25/16 A3011 RMK A01 T02540163  RH  057%=      5-min Rain = 0
KBY1 130654Z 14005KT 25/16 A3011 RMK A01 T02530162  RH  057%=      5-min Rain = 0
KBY1 130655Z 12006KT 25/16 A3011 RMK A01 T02540163  RH  057%=      5-min Rain = 0
KBY1 130656Z 14005KT 25/16 A3012 RMK A01 T02540163  RH  057%=      5-min Rain = 0
KBY1 130657Z 14007KT 25/16 A3012 RMK A01 T02540162  RH  057%=      5-min Rain = 0
KBY1 130658Z 14006KT 25/16 A3012 RMK A01 T02540162  RH  057%=      5-min Rain = 0
KBY1 130659Z 14006KT 25/16 A3012 RMK A01 T02540162  RH  057%=      5-min Rain = 0
KBY1 130700Z 14007KT 25/16 A3012 RMK A01 T02540162  RH  057%=      5-min Rain = 0
KBY1 130701Z 14004KT 25/16 A3012 RMK A01 T02540163  RH  057%=      5-min Rain = 0
KBY1 130702Z 14003KT 25/16 A3012 RMK A01 T02540163  RH  057%=      5-min Rain = 0
KBY1 130703Z 14005KT 25/16 A3012 RMK A01 T02540163  RH  057%=      5-min Rain = 0
KBY1 130704Z 12003KT 25/16 A3012 RMK A01 T02540162  RH  057%=      5-min Rain = 0
KBY1 130705Z 13005KT 25/16 A3012 RMK A01 T02540163  RH  057%=      5-min Rain = 0
KBY1 130706Z 15006KT 25/16 A3012 RMK A01 T02540162  RH  057%=      5-min Rain = 0
KBY1 130707Z 14003KT 25/16 A3012 RMK A01 T02540162  RH  057%=      5-min Rain = 0
KBY1 130708Z 13003KT 25/16 A3012 RMK A01 T02540162  RH  057%=      5-min Rain = 0
KBY1 130709Z 14006KT 25/16 A3012 RMK A01 T02540161  RH  056%=      5-min Rain = 0
KBY1 130710Z 16005KT 25/16 A3012 RMK A01 T02540161  RH  056%=      5-min Rain = 0
KBY1 130711Z 16009KT 25/16 A3012 RMK A01 T02540162  RH  057%=      5-min Rain = 0
KBY1 130712Z 15008KT 25/16 A3012 RMK A01 T02530160  RH  056%=      5-min Rain = 0
KBY1 130713Z 15006KT 25/16 A3012 RMK A01 T02540160  RH  056%=      5-min Rain = 0
KBY1 130714Z 16008KT 25/16 A3012 RMK A01 T02530160  RH  056%=      5-min Rain = 0
KBY1 130715Z 15009KT 25/16 A3012 RMK A01 T02540160  RH  056%=      5-min Rain = 0
KBY1 130716Z 14005KT 25/16 A3012 RMK A01 T02530160  RH  056%=      5-min Rain = 0
KBY1 130717Z 12005KT 25/16 A3012 RMK A01 T02530160  RH  056%=      5-min Rain = 0
KBY1 130718Z 14004KT 25/16 A3012 RMK A01 T02530161  RH  056%=      5-min Rain = 0
KBY1 130719Z 13008KT 25/16 A3012 RMK A01 T02530161  RH  056%=      5-min Rain = 0
KBY1 130720Z 14008KT 25/16 A3012 RMK A01 T02530160  RH  056%=      5-min Rain = 0
KBY1 130721Z 13006KT 25/16 A3012 RMK A01 T02530160  RH  056%=      5-min Rain = 0
KBY1 130722Z 14006KT 25/16 A3012 RMK A01 T02530160  RH  056%=      5-min Rain = 0
KBY1 130723Z 15006KT 25/16 A3012 RMK A01 T02530160  RH  057%=      5-min Rain = 0
KBY1 130724Z 15007KT 25/16 A3012 RMK A01 T02520160  RH  057%=      5-min Rain = 0
KBY1 130725Z 15007KT 25/16 A3012 RMK A01 T02520160  RH  057%=      5-min Rain = 0
KBY1 130726Z 14007KT 25/16 A3012 RMK A01 T02520160  RH  057%=      5-min Rain = 0
KBY1 130727Z 16007KT 25/16 A3012 RMK A01 T02520160  RH  057%=      5-min Rain = 0
KBY1 130728Z 16006KT 25/16 A3012 RMK A01 T02520159  RH  057%=      5-min Rain = 0
KBY1 130729Z 15007KT 25/16 A3012 RMK A01 T02520160  RH  057%=      5-min Rain = 0
KBY1 130730Z 16007KT 25/16 A3012 RMK A01 T02510159  RH  057%=      5-min Rain = 0
KBY1 130731Z 15004KT 25/16 A3012 RMK A01 T02510159  RH  057%=      5-min Rain = 0
KBY1 130732Z 11006KT 25/16 A3012 RMK A01 T02510160  RH  057%=      5-min Rain = 0
KBY1 130733Z 14008KT 25/16 A3012 RMK A01 T02510160  RH  057%=      5-min Rain = 0
KBY1 130734Z 15006KT 25/16 A3012 RMK A01 T02510159  RH  057%=      5-min Rain = 0
KBY1 130735Z 12006G11KT 25/16 A3012 RMK A01 T02510160  RH  057%=      5-min Rain = 0
KBY1 130736Z 15010G15KT 25/16 A3012 RMK A01 T02500159  RH  057%=      5-min Rain = 0
KBY1 130737Z 15007KT 25/16 A3012 RMK A01 T02500159  RH  057%=      5-min Rain = 0
KBY1 130738Z 14009KT 25/16 A3012 RMK A01 T02500159  RH  057%=      5-min Rain = 0
KBY1 130739Z 11006KT 25/16 A3012 RMK A01 T02490159  RH  057%=      5-min Rain = 0
KBY1 130740Z 10006KT 25/16 A3012 RMK A01 T02490159  RH  057%=      5-min Rain = 0
KBY1 130741Z 10008KT 25/16 A3012 RMK A01 T02490159  RH  057%=      5-min Rain = 0
KBY1 130742Z 14005KT 25/16 A3011 RMK A01 T02490159  RH  057%=      5-min Rain = 0
KBY1 130743Z 12005KT 25/16 A3012 RMK A01 T02490159  RH  057%=      5-min Rain = 0
KBY1 130744Z 12004KT 25/16 A3012 RMK A01 T02490159  RH  057%=      5-min Rain = 0
KBY1 130745Z 11003KT 25/16 A3011 RMK A01 T02480159  RH  058%=      5-min Rain = 0
KBY1 130746Z 09004KT 25/16 A3011 RMK A01 T02480159  RH  058%=      5-min Rain = 0
KBY1 130747Z 12006KT 25/16 A3011 RMK A01 T02480159  RH  058%=      5-min Rain = 0
KBY1 130748Z 10004KT 25/16 A3012 RMK A01 T02470159  RH  058%=      5-min Rain = 0
KBY1 130749Z 09004KT 25/16 A3012 RMK A01 T02470160  RH  058%=      5-min Rain = 0
KBY1 130750Z 13004KT 25/16 A3012 RMK A01 T02470160  RH  058%=      5-min Rain = 0
KBY1 130751Z 14003KT 25/16 A3012 RMK A01 T02470160  RH  058%=      5-min Rain = 0
KBY1 130752Z 08003KT 25/16 A3012 RMK A01 T02470160  RH  059%=      5-min Rain = 0
KBY1 130753Z 09002KT 25/16 A3012 RMK A01 T02460160  RH  059%=      5-min Rain = 0
KBY1 130754Z 06001KT 25/16 A3012 RMK A01 T02460160  RH  059%=      5-min Rain = 0
KBY1 130755Z 04001KT 25/16 A3012 RMK A01 T02460160  RH  059%=      5-min Rain = 0
KBY1 130756Z 05003KT 25/16 A3012 RMK A01 T02460160  RH  059%=      5-min Rain = 0
KBY1 130757Z 07004KT 25/16 A3012 RMK A01 T02460160  RH  059%=      5-min Rain = 0
KBY1 130758Z 06004KT 25/16 A3012 RMK A01 T02460160  RH  059%=      5-min Rain = 0
KBY1 130759Z 08004KT 25/16 A3012 RMK A01 T02460160  RH  059%=      5-min Rain = 0
KBY1 130800Z 10004KT 25/16 A3012 RMK A01 T02450161  RH  059%=      5-min Rain = 0
KBY1 130801Z 10003KT 24/16 A3012 RMK A01 T02440160  RH  059%=      5-min Rain = 0
KBY1 130802Z 08004KT 24/16 A3012 RMK A01 T02440161  RH  060%=      5-min Rain = 0
KBY1 130803Z 11004KT 24/16 A3012 RMK A01 T02440160  RH  060%=      5-min Rain = 0
KBY1 130804Z 08002KT 24/16 A3012 RMK A01 T02440160  RH  059%=      5-min Rain = 0
KBY1 130805Z 06003KT 24/16 A3012 RMK A01 T02440160  RH  059%=      5-min Rain = 0
KBY1 130806Z 06003KT 24/16 A3012 RMK A01 T02440161  RH  060%=      5-min Rain = 0
KBY1 130807Z 06003KT 24/16 A3012 RMK A01 T02440161  RH  060%=      5-min Rain = 0
KBY1 130808Z 06003KT 24/16 A3012 RMK A01 T02430161  RH  060%=      5-min Rain = 0
KBY1 130809Z 06003KT 24/16 A3012 RMK A01 T02420161  RH  060%=      5-min Rain = 0
KBY1 130810Z 05003KT 24/16 A3012 RMK A01 T02430162  RH  061%=      5-min Rain = 0
KBY1 130811Z 07004KT 24/16 A3012 RMK A01 T02420162  RH  061%=      5-min Rain = 0
KBY1 130812Z 07003KT 24/16 A3012 RMK A01 T02420162  RH  061%=      5-min Rain = 0
KBY1 130813Z 08005KT 24/16 A3012 RMK A01 T02420162  RH  061%=      5-min Rain = 0
KBY1 130814Z 09003KT 24/16 A3012 RMK A01 T02420162  RH  061%=      5-min Rain = 0
KBY1 130815Z 08002KT 24/16 A3012 RMK A01 T02420162  RH  061%=      5-min Rain = 0
KBY1 130816Z 11003KT 24/16 A3012 RMK A01 T02420162  RH  061%=      5-min Rain = 0
KBY1 130817Z 09003KT 24/16 A3012 RMK A01 T02420162  RH  061%=      5-min Rain = 0
KBY1 130818Z 04003KT 24/16 A3012 RMK A01 T02410163  RH  061%=      5-min Rain = 0
KBY1 130819Z 10001KT 24/16 A3012 RMK A01 T02410162  RH  061%=      5-min Rain = 0
KBY1 130820Z 09002KT 24/16 A3012 RMK A01 T02420162  RH  061%=      5-min Rain = 0
KBY1 130821Z 07001KT 24/16 A3012 RMK A01 T02410162  RH  061%=      5-min Rain = 0
KBY1 130822Z 07000KT 24/16 A3012 RMK A01 T02410162  RH  061%=      5-min Rain = 0
KBY1 130823Z 17000KT 24/16 A3012 RMK A01 T02420162  RH  061%=      5-min Rain = 0
KBY1 130824Z 18000KT 24/16 A3012 RMK A01 T02420163  RH  061%=      5-min Rain = 0
KBY1 130825Z 00000KT 24/16 A3012 RMK A01 T02420163  RH  061%=      5-min Rain = 0
KBY1 130826Z 21000KT 24/16 A3012 RMK A01 T02420163  RH  062%=      5-min Rain = 0
KBY1 130827Z 00000KT 24/16 A3012 RMK A01 T02420164  RH  062%=      5-min Rain = 0
KBY1 130828Z 15000KT 24/16 A3012 RMK A01 T02420164  RH  062%=      5-min Rain = 0
KBY1 130829Z 15001KT 24/16 A3012 RMK A01 T02420164  RH  062%=      5-min Rain = 0
KBY1 130830Z 19002KT 24/17 A3012 RMK A01 T02420165  RH  062%=      5-min Rain = 0
KBY1 130831Z 20002KT 24/17 A3012 RMK A01 T02410165  RH  062%=      5-min Rain = 0
KBY1 130832Z 17004KT 24/17 A3012 RMK A01 T02410165  RH  063%=      5-min Rain = 0
KBY1 130833Z 12003KT 24/17 A3012 RMK A01 T02400165  RH  063%=      5-min Rain = 0
KBY1 130834Z 11003KT 24/17 A3012 RMK A01 T02400165  RH  063%=      5-min Rain = 0
KBY1 130835Z 15002KT 24/16 A3012 RMK A01 T02400164  RH  063%=      5-min Rain = 0
KBY1 130836Z 15005KT 24/16 A3012 RMK A01 T02400164  RH  063%=      5-min Rain = 0
KBY1 130837Z 13005KT 24/17 A3012 RMK A01 T02400166  RH  063%=      5-min Rain = 0
KBY1 130838Z 13005KT 24/17 A3012 RMK A01 T02390166  RH  063%=      5-min Rain = 0
KBY1 130839Z 13007KT 24/17 A3012 RMK A01 T02390166  RH  064%=      5-min Rain = 0
KBY1 130840Z 14005KT 24/17 A3011 RMK A01 T02380166  RH  064%=      5-min Rain = 0
KBY1 130841Z 15005KT 24/17 A3011 RMK A01 T02370166  RH  064%=      5-min Rain = 0
KBY1 130842Z 15008KT 24/17 A3011 RMK A01 T02370166  RH  064%=      5-min Rain = 0
KBY1 130843Z 17008KT 24/17 A3011 RMK A01 T02370167  RH  065%=      5-min Rain = 0
KBY1 130844Z 17006KT 24/17 A3011 RMK A01 T02370167  RH  065%=      5-min Rain = 0
KBY1 130845Z 16006KT 24/17 A3011 RMK A01 T02370167  RH  065%=      5-min Rain = 0
KBY1 130846Z 18004KT 24/17 A3011 RMK A01 T02360166  RH  065%=      5-min Rain = 0
KBY1 130847Z 16003KT 24/17 A3011 RMK A01 T02360167  RH  065%=      5-min Rain = 0
KBY1 130848Z 15004KT 24/17 A3011 RMK A01 T02350167  RH  065%=      5-min Rain = 0
KBY1 130849Z 16006KT 24/17 A3011 RMK A01 T02350167  RH  065%=      5-min Rain = 0
KBY1 130850Z 18005KT 23/17 A3011 RMK A01 T02340167  RH  066%=      5-min Rain = 0
KBY1 130851Z 18005KT 23/17 A3011 RMK A01 T02340167  RH  066%=      5-min Rain = 0
KBY1 130852Z 18007KT 23/17 A3011 RMK A01 T02330167  RH  066%=      5-min Rain = 0
KBY1 130853Z 18007KT 23/17 A3011 RMK A01 T02320167  RH  067%=      5-min Rain = 0
KBY1 130854Z 17006KT 23/17 A3011 RMK A01 T02320167  RH  067%=      5-min Rain = 0
KBY1 130855Z 17006KT 23/17 A3011 RMK A01 T02320167  RH  067%=      5-min Rain = 0
KBY1 130856Z 17005KT 23/17 A3011 RMK A01 T02320167  RH  067%=      5-min Rain = 0
KBY1 130857Z 17006KT 23/17 A3011 RMK A01 T02320167  RH  067%=      5-min Rain = 0
KBY1 130858Z 16007KT 23/17 A3011 RMK A01 T02320167  RH  067%=      5-min Rain = 0
KBY1 130859Z 16006KT 23/17 A3011 RMK A01 T02330167  RH  066%=      5-min Rain = 0
KBY1 130900Z 16006KT 23/17 A3011 RMK A01 T02330166  RH  066%=      5-min Rain = 0
KBY1 130901Z 17006KT 23/17 A3011 RMK A01 T02330167  RH  066%=      5-min Rain = 0
KBY1 130902Z 18006KT 23/17 A3011 RMK A01 T02330167  RH  066%=      5-min Rain = 0
KBY1 130903Z 18006KT 23/17 A3011 RMK A01 T02320167  RH  066%=      5-min Rain = 0
KBY1 130904Z 18007KT 23/17 A3011 RMK A01 T02320167  RH  067%=      5-min Rain = 0
KBY1 130905Z 17008KT 23/17 A3011 RMK A01 T02320167  RH  067%=      5-min Rain = 0
KBY1 130906Z 18008KT 23/17 A3011 RMK A01 T02310166  RH  066%=      5-min Rain = 0
KBY1 130907Z 17007KT 23/17 A3011 RMK A01 T02320166  RH  066%=      5-min Rain = 0
KBY1 130908Z 17008KT 23/17 A3011 RMK A01 T02320166  RH  066%=      5-min Rain = 0
KBY1 130909Z 17007KT 23/17 A3011 RMK A01 T02320166  RH  066%=      5-min Rain = 0
KBY1 130910Z 17007KT 23/17 A3011 RMK A01 T02320166  RH  066%=      5-min Rain = 0
KBY1 130911Z 17008KT 23/17 A301 RMK A01 T02320166  RH  066%=      5-min Rain = 0
KBY1 130912Z 16006KT 23/17 A301 RMK A01 T02330166  RH  066%=      5-min Rain = 0
KBY1 130913Z 18007KT 23/17 A301 RMK A01 T02330166  RH  066%=      5-min Rain = 0
KBY1 130914Z 17007KT 23/17 A301 RMK A01 T02320166  RH  066%=      5-min Rain = 0
KBY1 130915Z 17009KT 23/17 A301 RMK A01 T02320166  RH  066%=      5-min Rain = 0
KBY1 130916Z 17010KT 23/17 A301 RMK A01 T02330166  RH  066%=      5-min Rain = 0
KBY1 130917Z 16009KT 23/17 A301 RMK A01 T02320165  RH  066%=      5-min Rain = 0
KBY1 130918Z 17008KT 23/17 A301 RMK A01 T02320165  RH  066%=      5-min Rain = 0
KBY1 130919Z 17009KT 23/17 A301 RMK A01 T02320165  RH  066%=      5-min Rain = 0
KBY1 130920Z 15009KT 23/17 A301 RMK A01 T02320165  RH  066%=      5-min Rain = 0
KBY1 130921Z 16009KT 23/17 A301 RMK A01 T02330165  RH  066%=      5-min Rain = 0
KBY1 130922Z 15007KT 23/17 A301 RMK A01 T02330165  RH  066%=      5-min Rain = 0
KBY1 130923Z 15006KT 23/17 A301 RMK A01 T02330165  RH  066%=      5-min Rain = 0
KBY1 130924Z 15008KT 23/17 A301 RMK A01 T02330165  RH  066%=      5-min Rain = 0
KBY1 130925Z 15008KT 23/17 A301 RMK A01 T02330165  RH  066%=      5-min Rain = 0
KBY1 130926Z 15009KT 23/17 A301 RMK A01 T02330165  RH  066%=      5-min Rain = 0
KBY1 130927Z 17010KT 23/17 A301 RMK A01 T02330165  RH  066%=      5-min Rain = 0
KBY1 130928Z 16007KT 23/17 A301 RMK A01 T02330165  RH  065%=      5-min Rain = 0
KBY1 130929Z 16006KT 23/17 A301 RMK A01 T02330165  RH  066%=      5-min Rain = 0
KBY1 130930Z 15006KT 23/17 A301 RMK A01 T02330165  RH  066%=      5-min Rain = 0
KBY1 130931Z 14008KT 23/17 A301 RMK A01 T02330166  RH  066%=      5-min Rain = 0
KBY1 130932Z 15009KT 23/17 A301 RMK A01 T02330165  RH  066%=      5-min Rain = 0
KBY1 130933Z 16009KT 23/17 A3011 RMK A01 T02330165  RH  066%=      5-min Rain = 0
KBY1 130934Z 16006KT 23/17 A3011 RMK A01 T02330165  RH  066%=      5-min Rain = 0
KBY1 130935Z 15006KT 23/17 A3011 RMK A01 T02330165  RH  066%=      5-min Rain = 0
KBY1 130936Z 17008KT 23/17 A3011 RMK A01 T02330165  RH  066%=      5-min Rain = 0
KBY1 130937Z 17009KT 23/17 A3011 RMK A01 T02330165  RH  066%=      5-min Rain = 0
KBY1 130938Z 17008KT 23/17 A3011 RMK A01 T02330165  RH  066%=      5-min Rain = 0
KBY1 130939Z 17005KT 23/17 A3011 RMK A01 T02320165  RH  066%=      5-min Rain = 0
KBY1 130940Z 14003KT 23/17 A3011 RMK A01 T02320165  RH  066%=      5-min Rain = 0
KBY1 130941Z 18005KT 23/17 A3011 RMK A01 T02320165  RH  066%=      5-min Rain = 0
KBY1 130942Z 17008KT 23/16 A3011 RMK A01 T02320164  RH  066%=      5-min Rain = 0
KBY1 130943Z 18005KT 23/16 A3011 RMK A01 T02320163  RH  065%=      5-min Rain = 0
KBY1 130944Z 17009KT 23/16 A3011 RMK A01 T02320164  RH  065%=      5-min Rain = 0
KBY1 130945Z 15006KT 23/16 A3011 RMK A01 T02320163  RH  065%=      5-min Rain = 0
KBY1 130946Z 17007KT 23/16 A3011 RMK A01 T02320163  RH  065%=      5-min Rain = 0
KBY1 130947Z 17006KT 23/16 A3011 RMK A01 T02320163  RH  065%=      5-min Rain = 0
KBY1 130948Z 17006KT 23/16 A3011 RMK A01 T02320163  RH  065%=      5-min Rain = 0
KBY1 130949Z 18006KT 23/16 A3011 RMK A01 T02320162  RH  065%=      5-min Rain = 0
KBY1 130950Z 19005KT 23/16 A3011 RMK A01 T02320162  RH  065%=      5-min Rain = 0
KBY1 130951Z 15003KT 23/16 A3011 RMK A01 T02320163  RH  065%=      5-min Rain = 0
KBY1 130952Z 14005KT 23/16 A3011 RMK A01 T02310162  RH  065%=      5-min Rain = 0
KBY1 130953Z 16004KT 23/16 A3011 RMK A01 T02310162  RH  065%=      5-min Rain = 0
KBY1 130954Z 16004KT 23/16 A3011 RMK A01 T02310162  RH  065%=      5-min Rain = 0
KBY1 130955Z 16004KT 23/16 A3011 RMK A01 T02310163  RH  065%=      5-min Rain = 0
KBY1 130956Z 17005KT 23/16 A3011 RMK A01 T02300163  RH  066%=      5-min Rain = 0
KBY1 130957Z 17006KT 23/16 A3011 RMK A01 T02300162  RH  066%=      5-min Rain = 0
KBY1 130958Z 18006KT 23/16 A3011 RMK A01 T02290162  RH  066%=      5-min Rain = 0
KBY1 130959Z 16006KT 23/16 A3011 RMK A01 T02290162  RH  066%=      5-min Rain = 0
KBY1 131000Z 16004KT 23/16 A3011 RMK A01 T02290161  RH  065%=      5-min Rain = 0
KBY1 131001Z 16006KT 23/16 A3011 RMK A01 T02290161  RH  065%=      5-min Rain = 0
KBY1 131002Z 17005KT 23/16 A3011 RMK A01 T02290161  RH  065%=      5-min Rain = 0
KBY1 131003Z 17006KT 23/16 A3011 RMK A01 T02290161  RH  065%=      5-min Rain = 0
KBY1 131004Z 15006KT 23/16 A3011 RMK A01 T02290161  RH  066%=      5-min Rain = 0
KBY1 131005Z 17008KT 23/16 A3011 RMK A01 T02280162  RH  066%=      5-min Rain = 0
KBY1 131006Z 16007KT 23/16 A3011 RMK A01 T02280161  RH  066%=      5-min Rain = 0
KBY1 131007Z 17009KT 23/16 A3011 RMK A01 T02280161  RH  066%=      5-min Rain = 0
KBY1 131008Z 19007KT 23/16 A3011 RMK A01 T02280160  RH  066%=      5-min Rain = 0
KBY1 131009Z 19009KT 23/16 A3011 RMK A01 T02280160  RH  066%=      5-min Rain = 0
KBY1 131010Z 18006KT 23/16 A3011 RMK A01 T02280159  RH  065%=      5-min Rain = 0
KBY1 131011Z 15005KT 23/16 A301 RMK A01 T02280160  RH  066%=      5-min Rain = 0
KBY1 131012Z 16007KT 23/16 A3011 RMK A01 T02280160  RH  065%=      5-min Rain = 0
KBY1 131013Z 16005KT 23/16 A3011 RMK A01 T02280160  RH  066%=      5-min Rain = 0
KBY1 131014Z 14003KT 23/16 A3011 RMK A01 T02280160  RH  066%=      5-min Rain = 0
KBY1 131015Z 14002KT 23/16 A3011 RMK A01 T02280161  RH  066%=      5-min Rain = 0
KBY1 131016Z 20002KT 23/16 A3011 RMK A01 T02270160  RH  066%=      5-min Rain = 0
KBY1 131017Z 19003KT 23/16 A3011 RMK A01 T02260161  RH  066%=      5-min Rain = 0
KBY1 131018Z 16005KT 23/16 A3011 RMK A01 T02250160  RH  067%=      5-min Rain = 0
KBY1 131019Z 16006KT 23/16 A3011 RMK A01 T02250159  RH  066%=      5-min Rain = 0
KBY1 131020Z 19009KT 23/16 A3011 RMK A01 T02260158  RH  066%=      5-min Rain = 0
KBY1 131021Z 19008KT 23/16 A3011 RMK A01 T02270158  RH  065%=      5-min Rain = 0
KBY1 131022Z 18005KT 23/16 A3011 RMK A01 T02270158  RH  065%=      5-min Rain = 0
KBY1 131023Z 12003KT 23/16 A3011 RMK A01 T02270158  RH  065%=      5-min Rain = 0
KBY1 131024Z 13006KT 23/16 A3011 RMK A01 T02270159  RH  065%=      5-min Rain = 0
KBY1 131025Z 17007KT 23/16 A3011 RMK A01 T02270158  RH  065%=      5-min Rain = 0
KBY1 131026Z 16005KT 23/16 A3011 RMK A01 T02270158  RH  065%=      5-min Rain = 0
KBY1 131027Z 15003KT 23/16 A3011 RMK A01 T02280159  RH  065%=      5-min Rain = 0
KBY1 131028Z 14001KT 23/16 A3011 RMK A01 T02280159  RH  065%=      5-min Rain = 0
KBY1 131029Z 17000KT 23/16 A3011 RMK A01 T02270158  RH  065%=      5-min Rain = 0
KBY1 131030Z 15001KT 23/16 A3011 RMK A01 T02270158  RH  065%=      5-min Rain = 0
KBY1 131031Z 16002KT 23/16 A3011 RMK A01 T02270158  RH  065%=      5-min Rain = 0
KBY1 131032Z 20002KT 23/16 A3011 RMK A01 T02270159  RH  065%=      5-min Rain = 0
KBY1 131033Z 17001KT 23/16 A3011 RMK A01 T02270159  RH  065%=      5-min Rain = 0
KBY1 131034Z 00000KT 23/16 A3011 RMK A01 T02270159  RH  065%=      5-min Rain = 0
KBY1 131035Z 06001KT 23/16 A3011 RMK A01 T02270159  RH  065%=      5-min Rain = 0
KBY1 131036Z 03003KT 23/16 A3011 RMK A01 T02270159  RH  065%=      5-min Rain = 0
KBY1 131037Z 07005KT 23/16 A3011 RMK A01 T02270159  RH  065%=      5-min Rain = 0
KBY1 131038Z 07004KT 23/16 A3011 RMK A01 T02270159  RH  065%=      5-min Rain = 0
KBY1 131039Z 08005KT 23/16 A3011 RMK A01 T02270159  RH  065%=      5-min Rain = 0
KBY1 131040Z 10004KT 23/16 A3011 RMK A01 T02270159  RH  066%=      5-min Rain = 0
KBY1 131041Z 09003KT 23/16 A3011 RMK A01 T02260159  RH  066%=      5-min Rain = 0
KBY1 131042Z 10004KT 23/16 A3011 RMK A01 T02260160  RH  066%=      5-min Rain = 0
KBY1 131043Z 10004KT 23/16 A3011 RMK A01 T02250159  RH  066%=      5-min Rain = 0
KBY1 131044Z 10005KT 23/16 A3011 RMK A01 T02250159  RH  066%=      5-min Rain = 0
KBY1 131045Z 10003KT 23/16 A3011 RMK A01 T02250160  RH  066%=      5-min Rain = 0
KBY1 131046Z 08005KT 23/16 A3011 RMK A01 T02260160  RH  066%=      5-min Rain = 0
KBY1 131047Z 09004KT 23/16 A3011 RMK A01 T02260160  RH  066%=      5-min Rain = 0
KBY1 131048Z 09006KT 23/16 A3011 RMK A01 T02250159  RH  066%=      5-min Rain = 0
KBY1 131049Z 10004KT 23/16 A3011 RMK A01 T02260160  RH  066%=      5-min Rain = 0
KBY1 131050Z 09004KT 23/16 A3011 RMK A01 T02250159  RH  066%=      5-min Rain = 0
KBY1 131051Z 09004KT 23/16 A3011 RMK A01 T02260159  RH  066%=      5-min Rain = 0
KBY1 131052Z 07003KT 23/16 A3011 RMK A01 T02250159  RH  066%=      5-min Rain = 0
KBY1 131053Z 08004KT 23/16 A3011 RMK A01 T02250160  RH  066%=      5-min Rain = 0
KBY1 131054Z 09003KT 23/16 A3011 RMK A01 T02250160  RH  067%=      5-min Rain = 0
KBY1 131055Z 09003KT 23/16 A3011 RMK A01 T02250160  RH  067%=      5-min Rain = 0
KBY1 131056Z 09004KT 23/16 A3011 RMK A01 T02250160  RH  067%=      5-min Rain = 0
KBY1 131057Z 11003KT 23/16 A3011 RMK A01 T02250160  RH  067%=      5-min Rain = 0
KBY1 131058Z 09003KT 22/16 A3011 RMK A01 T02240159  RH  067%=      5-min Rain = 0
KBY1 131059Z 12001KT 23/16 A3011 RMK A01 T02250160  RH  067%=      5-min Rain = 0
KBY1 131100Z 16000KT 23/16 A3011 RMK A01 T02250160  RH  067%=      5-min Rain = 0
KBY1 131101Z 09001KT 23/16 A3011 RMK A01 T02250161  RH  067%=      5-min Rain = 0
KBY1 131102Z 08001KT 22/16 A3011 RMK A01 T02240160  RH  067%=      5-min Rain = 0
KBY1 131103Z 33000KT 23/16 A3011 RMK A01 T02250160  RH  067%=      5-min Rain = 0
KBY1 131104Z 36001KT 23/16 A3011 RMK A01 T02250160  RH  067%=      5-min Rain = 0
KBY1 131105Z 02002KT 23/16 A3011 RMK A01 T02250160  RH  066%=      5-min Rain = 0
KBY1 131106Z 04002KT 23/16 A3011 RMK A01 T02260160  RH  066%=      5-min Rain = 0
KBY1 131107Z 05000KT 23/16 A3012 RMK A01 T02260160  RH  066%=      5-min Rain = 0
KBY1 131108Z 05000KT 23/16 A3012 RMK A01 T02260160  RH  066%=      5-min Rain = 0
KBY1 131109Z 05001KT 23/16 A3012 RMK A01 T02260160  RH  066%=      5-min Rain = 0
KBY1 131110Z 14001KT 23/16 A3012 RMK A01 T02260160  RH  066%=      5-min Rain = 0
KBY1 131111Z 15002KT 23/16 A3012 RMK A01 T02260160  RH  066%=      5-min Rain = 0
KBY1 131112Z 13001KT 23/16 A3012 RMK A01 T02260160  RH  066%=      5-min Rain = 0
KBY1 131113Z 22001KT 23/16 A3012 RMK A01 T02260160  RH  066%=      5-min Rain = 0
KBY1 131114Z 24001KT 23/16 A3012 RMK A01 T02270160  RH  066%=      5-min Rain = 0
KBY1 131115Z 30000KT 23/16 A3012 RMK A01 T02270160  RH  066%=      5-min Rain = 0
KBY1 131116Z 00000KT 23/16 A3012 RMK A01 T02270160  RH  066%=      5-min Rain = 0
KBY1 131117Z 00000KT 23/16 A3012 RMK A01 T02270161  RH  066%=      5-min Rain = 0
KBY1 131118Z 09001KT 23/16 A3012 RMK A01 T02270160  RH  066%=      5-min Rain = 0
KBY1 131119Z 12002KT 23/16 A3012 RMK A01 T02270161  RH  066%=      5-min Rain = 0
KBY1 131120Z 15003KT 23/16 A3012 RMK A01 T02270161  RH  066%=      5-min Rain = 0
KBY1 131121Z 15003KT 23/16 A3012 RMK A01 T02260161  RH  067%=      5-min Rain = 0
KBY1 131122Z 15003KT 23/16 A3012 RMK A01 T02260161  RH  067%=      5-min Rain = 0
KBY1 131123Z 16003G8KT 23/16 A3011 RMK A01 T02250161  RH  067%=      5-min Rain = 0
KBY1 131124Z 15005KT 23/16 A3011 RMK A01 T02260161  RH  067%=      5-min Rain = 0
KBY1 131125Z 17004KT 23/16 A3011 RMK A01 T02270162  RH  066%=      5-min Rain = 0
KBY1 131126Z 20005G10KT 23/16 A3011 RMK A01 T02270162  RH  067%=      5-min Rain = 0
KBY1 131127Z 20008KT 23/16 A3011 RMK A01 T02270162  RH  067%=      5-min Rain = 0
KBY1 131128Z 20005KT 23/16 A3011 RMK A01 T02270162  RH  067%=      5-min Rain = 0
KBY1 131129Z 20005KT 23/16 A3011 RMK A01 T02270162  RH  067%=      5-min Rain = 0
KBY1 131130Z 18004KT 23/16 A3011 RMK A01 T02270163  RH  067%=      5-min Rain = 0
KBY1 131131Z 20005KT 23/16 A3011 RMK A01 T02270163  RH  067%=      5-min Rain = 0
KBY1 131132Z 20006KT 23/16 A3011 RMK A01 T02270163  RH  067%=      5-min Rain = 0
KBY1 131133Z 19008KT 23/16 A3012 RMK A01 T02260162  RH  067%=      5-min Rain = 0
KBY1 131134Z 18007KT 23/16 A3012 RMK A01 T02270162  RH  067%=      5-min Rain = 0
KBY1 131135Z 20006KT 23/16 A3012 RMK A01 T02280162  RH  067%=      5-min Rain = 0
KBY1 131136Z 20007KT 23/16 A3012 RMK A01 T02280163  RH  067%=      5-min Rain = 0
KBY1 131137Z 22005KT 23/16 A3012 RMK A01 T02280162  RH  066%=      5-min Rain = 0
KBY1 131138Z 20005KT 23/16 A3012 RMK A01 T02280163  RH  066%=      5-min Rain = 0
KBY1 131139Z 20007KT 23/16 A3012 RMK A01 T02280163  RH  066%=      5-min Rain = 0
KBY1 131140Z 19004KT 23/16 A3012 RMK A01 T02290163  RH  066%=      5-min Rain = 0
KBY1 131141Z 21002KT 23/16 A3012 RMK A01 T02290162  RH  066%=      5-min Rain = 0
KBY1 131142Z 19006KT 23/16 A3012 RMK A01 T02290162  RH  066%=      5-min Rain = 0
KBY1 131143Z 21004KT 23/16 A3012 RMK A01 T02290163  RH  066%=      5-min Rain = 0
KBY1 131144Z 19003KT 23/16 A3012 RMK A01 T02290163  RH  066%=      5-min Rain = 0
KBY1 131145Z 20004KT 23/16 A3012 RMK A01 T02290163  RH  066%=      5-min Rain = 0
KBY1 131146Z 21003KT 23/16 A3012 RMK A01 T02290163  RH  067%=      5-min Rain = 0
KBY1 131147Z 23003KT 23/16 A3012 RMK A01 T02280163  RH  067%=      5-min Rain = 0
KBY1 131148Z 21003KT 23/16 A3012 RMK A01 T02280163  RH  066%=      5-min Rain = 0
KBY1 131149Z 21002KT 23/16 A3012 RMK A01 T02280162  RH  066%=      5-min Rain = 0
KBY1 131150Z 20001KT 23/16 A3012 RMK A01 T02290163  RH  066%=      5-min Rain = 0
KBY1 131151Z 24000KT 23/16 A3012 RMK A01 T02290163  RH  066%=      5-min Rain = 0
KBY1 131152Z 29000KT 23/16 A3012 RMK A01 T02290163  RH  066%=      5-min Rain = 0
KBY1 131153Z 00000KT 23/16 A3012 RMK A01 T02290163  RH  066%=      5-min Rain = 0
KBY1 131154Z 16001KT 23/16 A3012 RMK A01 T02290163  RH  066%=      5-min Rain = 0
KBY1 131155Z 06001KT 23/16 A3012 RMK A01 T02290163  RH  066%=      5-min Rain = 0
KBY1 131156Z 01001KT 23/16 A3012 RMK A01 T02290162  RH  066%=      5-min Rain = 0
KBY1 131157Z 33002KT 23/16 A3012 RMK A01 T02290163  RH  066%=      5-min Rain = 0
KBY1 131158Z 31002KT 23/16 A3012 RMK A01 T02290162  RH  066%=      5-min Rain = 0
KBY1 131159Z 30001KT 23/16 A3012 RMK A01 T02290163  RH  066%=      5-min Rain = 0
KBY1 131200Z 31000KT 23/16 A3012 RMK A01 T02290162  RH  066%=      5-min Rain = 0
KBY1 131201Z 25001KT 23/16 A3012 RMK A01 T02290162  RH  066%=      5-min Rain = 0
KBY1 131202Z 26000KT 23/16 A3012 RMK A01 T02290162  RH  066%=      5-min Rain = 0
KBY1 131203Z 28001KT 23/16 A3012 RMK A01 T02300163  RH  066%=      5-min Rain = 0
KBY1 131204Z 30000KT 23/16 A3012 RMK A01 T02300162  RH  066%=      5-min Rain = 0
KBY1 131205Z 00000KT 23/16 A3012 RMK A01 T02300163  RH  066%=      5-min Rain = 0
KBY1 131206Z 18001KT 23/16 A3012 RMK A01 T02290162  RH  066%=      5-min Rain = 0
KBY1 131207Z 18001KT 23/16 A3012 RMK A01 T02300162  RH  066%=      5-min Rain = 0
KBY1 131208Z 16004KT 23/16 A3012 RMK A01 T02300163  RH  066%=      5-min Rain = 0
KBY1 131209Z 16004KT 23/16 A3012 RMK A01 T02290164  RH  066%=      5-min Rain = 0
KBY1 131210Z 19004KT 23/16 A3012 RMK A01 T02290163  RH  066%=      5-min Rain = 0
KBY1 131211Z 21003KT 23/16 A3012 RMK A01 T02290163  RH  066%=      5-min Rain = 0
KBY1 131212Z 19004KT 23/16 A3012 RMK A01 T02300163  RH  066%=      5-min Rain = 0
KBY1 131213Z 19003KT 23/16 A3012 RMK A01 T02310163  RH  065%=      5-min Rain = 0
KBY1 131214Z 19004KT 23/16 A3012 RMK A01 T02310163  RH  065%=      5-min Rain = 0
KBY1 131215Z 17004KT 23/16 A3012 RMK A01 T02310163  RH  065%=      5-min Rain = 0
KBY1 131216Z 18003KT 23/16 A3012 RMK A01 T02310163  RH  065%=      5-min Rain = 0
KBY1 131217Z 19003KT 23/16 A3012 RMK A01 T02310163  RH  066%=      5-min Rain = 0
KBY1 131218Z 19002KT 23/16 A3012 RMK A01 T02310164  RH  066%=      5-min Rain = 0
KBY1 131219Z 19002KT 23/16 A3012 RMK A01 T02310164  RH  066%=      5-min Rain = 0
KBY1 131220Z 18002KT 23/16 A3012 RMK A01 T02310164  RH  066%=      5-min Rain = 0
KBY1 131221Z 21002KT 23/16 A3012 RMK A01 T02310163  RH  066%=      5-min Rain = 0
KBY1 131222Z 21005KT 23/16 A3012 RMK A01 T02300163  RH  066%=      5-min Rain = 0
KBY1 131223Z 21005KT 23/16 A3012 RMK A01 T02310163  RH  066%=      5-min Rain = 0
KBY1 131224Z 21005KT 23/16 A3012 RMK A01 T02310164  RH  066%=      5-min Rain = 0
KBY1 131225Z 20006KT 23/16 A3012 RMK A01 T02310163  RH  066%=      5-min Rain = 0
KBY1 131226Z 20004KT 23/16 A3012 RMK A01 T02320164  RH  065%=      5-min Rain = 0
KBY1 131227Z 20002KT 23/16 A3012 RMK A01 T02320164  RH  066%=      5-min Rain = 0
KBY1 131228Z 20003KT 23/17 A3012 RMK A01 T02320165  RH  066%=      5-min Rain = 0
KBY1 131229Z 20002KT 23/17 A3012 RMK A01 T02310165  RH  066%=      5-min Rain = 0
KBY1 131230Z 19003KT 23/17 A3012 RMK A01 T02310165  RH  066%=      5-min Rain = 0
KBY1 131231Z 19003KT 23/17 A3012 RMK A01 T02310165  RH  066%=      5-min Rain = 0
KBY1 131232Z 21002KT 23/16 A3013 RMK A01 T02310164  RH  066%=      5-min Rain = 0
KBY1 131233Z 23003KT 23/17 A3013 RMK A01 T02310165  RH  066%=      5-min Rain = 0
KBY1 131234Z 20002KT 23/16 A3013 RMK A01 T02310164  RH  066%=      5-min Rain = 0
KBY1 131235Z 23002KT 23/16 A3013 RMK A01 T02310164  RH  066%=      5-min Rain = 0
KBY1 131236Z 20001KT 23/16 A3013 RMK A01 T02310164  RH  066%=      5-min Rain = 0
KBY1 131237Z 00000KT 23/16 A3013 RMK A01 T02310164  RH  066%=      5-min Rain = 0
KBY1 131238Z 00000KT 23/16 A3013 RMK A01 T02320164  RH  066%=      5-min Rain = 0
KBY1 131239Z 23001KT 23/16 A3013 RMK A01 T02320164  RH  065%=      5-min Rain = 0
KBY1 131240Z 21001KT 23/16 A3013 RMK A01 T02320164  RH  065%=      5-min Rain = 0
KBY1 131241Z 22000KT 23/16 A3013 RMK A01 T02330163  RH  065%=      5-min Rain = 0
KBY1 131242Z 30001KT 23/16 A3013 RMK A01 T02330164  RH  065%=      5-min Rain = 0
KBY1 131243Z 28002KT 23/17 A3013 RMK A01 T02330165  RH  065%=      5-min Rain = 0
KBY1 131244Z 27001KT 23/17 A3013 RMK A01 T02330165  RH  065%=      5-min Rain = 0
KBY1 131245Z 26004KT 23/16 A3013 RMK A01 T02330163  RH  065%=      5-min Rain = 0
KBY1 131246Z 27004KT 23/16 A3013 RMK A01 T02340163  RH  065%=      5-min Rain = 0
KBY1 131247Z 26003KT 23/16 A3013 RMK A01 T02340163  RH  064%=      5-min Rain = 0
KBY1 131248Z 27001KT 23/16 A3013 RMK A01 T02340164  RH  064%=      5-min Rain = 0
KBY1 131249Z 14000KT 24/16 A3013 RMK A01 T02350163  RH  064%=      5-min Rain = 0
KBY1 131250Z 16002KT 24/16 A3013 RMK A01 T02350164  RH  065%=      5-min Rain = 0
KBY1 131251Z 18001KT 24/16 A3013 RMK A01 T02350164  RH  064%=      5-min Rain = 0
KBY1 131252Z 15004KT 24/16 A3013 RMK A01 T02350164  RH  064%=      5-min Rain = 0
KBY1 131253Z 16003KT 24/16 A3013 RMK A01 T02350163  RH  064%=      5-min Rain = 0
KBY1 131254Z 18002KT 24/16 A3013 RMK A01 T02360163  RH  064%=      5-min Rain = 0
KBY1 131255Z 17003KT 24/16 A3013 RMK A01 T02360164  RH  064%=      5-min Rain = 0
KBY1 131256Z 17003KT 24/17 A3013 RMK A01 T02360165  RH  064%=      5-min Rain = 0
KBY1 131257Z 17003KT 24/17 A3013 RMK A01 T02360165  RH  065%=      5-min Rain = 0
KBY1 131258Z 20003KT 24/17 A3013 RMK A01 T02350165  RH  065%=      5-min Rain = 0
KBY1 131259Z 17002KT 24/16 A3013 RMK A01 T02350164  RH  064%=      5-min Rain = 0
KBY1 131300Z 13002KT 24/17 A3013 RMK A01 T02350165  RH  065%=      5-min Rain = 0
KBY1 131301Z 13002KT 24/17 A3013 RMK A01 T02350165  RH  065%=      5-min Rain = 0
KBY1 131302Z 16002KT 24/17 A3013 RMK A01 T02350166  RH  065%=      5-min Rain = 0
KBY1 131303Z 18002KT 24/17 A3013 RMK A01 T02350166  RH  065%=      5-min Rain = 0
KBY1 131304Z 19001KT 24/17 A3013 RMK A01 T02350165  RH  065%=      5-min Rain = 0
KBY1 131305Z 18002KT 24/17 A3013 RMK A01 T02350166  RH  065%=      5-min Rain = 0
KBY1 131306Z 17001KT 24/17 A3013 RMK A01 T02350166  RH  065%=      5-min Rain = 0
KBY1 131307Z 18001KT 24/17 A3013 RMK A01 T02350165  RH  065%=      5-min Rain = 0
KBY1 131308Z 23001KT 24/17 A3013 RMK A01 T02350166  RH  065%=      5-min Rain = 0
KBY1 131309Z 26002KT 24/17 A3013 RMK A01 T02360166  RH  065%=      5-min Rain = 0
KBY1 131310Z 29002KT 24/17 A3013 RMK A01 T02360165  RH  065%=      5-min Rain = 0
KBY1 131311Z 31001KT 24/17 A3013 RMK A01 T02360165  RH  064%=      5-min Rain = 0
KBY1 131312Z 33002KT 24/17 A3013 RMK A01 T02360166  RH  065%=      5-min Rain = 0
KBY1 131313Z 35003KT 24/17 A3013 RMK A01 T02360166  RH  065%=      5-min Rain = 0
KBY1 131314Z 36003KT 24/17 A3013 RMK A01 T02360165  RH  065%=      5-min Rain = 0
KBY1 131315Z 00002KT 24/17 A3013 RMK A01 T02360165  RH  064%=      5-min Rain = 0
KBY1 131316Z 01003KT 24/17 A3013 RMK A01 T02360165  RH  064%=      5-min Rain = 0
KBY1 131317Z 05000KT 24/16 A3013 RMK A01 T02370164  RH  064%=      5-min Rain = 0
KBY1 131318Z 02000KT 24/16 A3013 RMK A01 T02370164  RH  064%=      5-min Rain = 0
KBY1 131319Z 02002KT 24/16 A3013 RMK A01 T02370164  RH  064%=      5-min Rain = 0
KBY1 131320Z 35002KT 24/17 A3013 RMK A01 T02380165  RH  064%=      5-min Rain = 0
KBY1 131321Z 02001KT 24/16 A3014 RMK A01 T02380164  RH  063%=      5-min Rain = 0
KBY1 131322Z 15001KT 24/17 A3014 RMK A01 T02380165  RH  064%=      5-min Rain = 0
KBY1 131323Z 20002KT 24/17 A3014 RMK A01 T02390167  RH  064%=      5-min Rain = 0
KBY1 131324Z 22002KT 24/17 A3013 RMK A01 T02390167  RH  064%=      5-min Rain = 0
KBY1 131325Z 24001KT 24/17 A3014 RMK A01 T02390166  RH  064%=      5-min Rain = 0
KBY1 131326Z 24001KT 24/17 A3014 RMK A01 T02390166  RH  063%=      5-min Rain = 0
KBY1 131327Z 23003KT 24/17 A3014 RMK A01 T02390166  RH  063%=      5-min Rain = 0
KBY1 131328Z 22005KT 24/17 A3014 RMK A01 T02390167  RH  064%=      5-min Rain = 0
KBY1 131329Z 22004KT 24/17 A3014 RMK A01 T02390166  RH  064%=      5-min Rain = 0
KBY1 131330Z 24004KT 24/17 A3014 RMK A01 T02390166  RH  064%=      5-min Rain = 0
KBY1 131331Z 22005KT 24/17 A3014 RMK A01 T02390167  RH  064%=      5-min Rain = 0
KBY1 131332Z 23005KT 24/17 A3014 RMK A01 T02390166  RH  064%=      5-min Rain = 0
KBY1 131333Z 23005KT 24/17 A3014 RMK A01 T02390166  RH  064%=      5-min Rain = 0
KBY1 131334Z 22005KT 24/17 A3014 RMK A01 T02390167  RH  064%=      5-min Rain = 0
KBY1 131335Z 21004KT 24/17 A3014 RMK A01 T02390167  RH  064%=      5-min Rain = 0
KBY1 131336Z 21004KT 24/17 A3014 RMK A01 T02390167  RH  064%=      5-min Rain = 0
KBY1 131337Z 22004KT 24/17 A3014 RMK A01 T02390166  RH  064%=      5-min Rain = 0
KBY1 131338Z 23004KT 24/17 A3014 RMK A01 T02400167  RH  064%=      5-min Rain = 0
KBY1 131339Z 24004KT 24/17 A3014 RMK A01 T02400167  RH  063%=      5-min Rain = 0
KBY1 131340Z 23005KT 24/17 A3014 RMK A01 T02400167  RH  063%=      5-min Rain = 0
KBY1 131341Z 23005KT 24/17 A3014 RMK A01 T02410167  RH  063%=      5-min Rain = 0
KBY1 131342Z 25007KT 24/17 A3014 RMK A01 T02410167  RH  063%=      5-min Rain = 0
KBY1 131343Z 24008KT 24/17 A3014 RMK A01 T02410167  RH  063%=      5-min Rain = 0
KBY1 131344Z 23006KT 24/17 A3014 RMK A01 T02410167  RH  063%=      5-min Rain = 0
KBY1 131345Z 22005KT 24/17 A3014 RMK A01 T02410168  RH  063%=      5-min Rain = 0
KBY1 131346Z 23006KT 24/17 A3014 RMK A01 T02410168  RH  063%=      5-min Rain = 0
KBY1 131347Z 23008KT 24/17 A3014 RMK A01 T02410167  RH  063%=      5-min Rain = 0
KBY1 131348Z 23009KT 24/17 A3014 RMK A01 T02410166  RH  063%=      5-min Rain = 0
KBY1 131349Z 25007KT 24/17 A3014 RMK A01 T02410166  RH  063%=      5-min Rain = 0
KBY1 131350Z 25009KT 24/17 A3014 RMK A01 T02420166  RH  063%=      5-min Rain = 0
KBY1 131351Z 24008KT 24/17 A3014 RMK A01 T02420166  RH  063%=      5-min Rain = 0
KBY1 131352Z 23007KT 24/17 A3014 RMK A01 T02420167  RH  063%=      5-min Rain = 0
KBY1 131353Z 23006KT 24/17 A3014 RMK A01 T02420167  RH  063%=      5-min Rain = 0
KBY1 131354Z 23007KT 24/17 A3014 RMK A01 T02430168  RH  063%=      5-min Rain = 0
KBY1 131355Z 24008KT 24/17 A3014 RMK A01 T02420168  RH  063%=      5-min Rain = 0
KBY1 131356Z 24008KT 24/17 A3014 RMK A01 T02430168  RH  063%=      5-min Rain = 0
KBY1 131357Z 24008KT 24/17 A3014 RMK A01 T02430167  RH  062%=      5-min Rain = 0
KBY1 131358Z 23008KT 24/17 A3014 RMK A01 T02440167  RH  062%=      5-min Rain = 0
KBY1 131359Z 23010KT 24/17 A3014 RMK A01 T02440167  RH  062%=      5-min Rain = 0
KBY1 131400Z 24009KT 24/17 A3013 RMK A01 T02440166  RH  062%=      5-min Rain = 0
KBY1 131401Z 24008KT 24/17 A3013 RMK A01 T02440167  RH  062%=      5-min Rain = 0
KBY1 131402Z 23009KT 24/17 A3013 RMK A01 T02440166  RH  062%=      5-min Rain = 0
KBY1 131403Z 24008KT 25/17 A3013 RMK A01 T02450167  RH  062%=      5-min Rain = 0
KBY1 131404Z 24008KT 25/17 A3013 RMK A01 T02450167  RH  062%=      5-min Rain = 0
KBY1 131405Z 23007KT 25/17 A3013 RMK A01 T02460167  RH  062%=      5-min Rain = 0
KBY1 131406Z 24008KT 25/17 A3013 RMK A01 T02460167  RH  062%=      5-min Rain = 0
KBY1 131407Z 25010KT 25/17 A3013 RMK A01 T02460168  RH  062%=      5-min Rain = 0
KBY1 131408Z 24010KT 25/17 A3013 RMK A01 T02460167  RH  061%=      5-min Rain = 0
KBY1 131409Z 24009KT 25/17 A3013 RMK A01 T02460167  RH  061%=      5-min Rain = 0
KBY1 131410Z 25010KT 25/17 A3013 RMK A01 T02460167  RH  061%=      5-min Rain = 0
KBY1 131411Z 24009KT 25/17 A3013 RMK A01 T02470167  RH  061%=      5-min Rain = 0
KBY1 131412Z 24008KT 25/17 A3013 RMK A01 T02470167  RH  061%=      5-min Rain = 0
KBY1 131413Z 24008KT 25/17 A3013 RMK A01 T02480167  RH  061%=      5-min Rain = 0
KBY1 131414Z 25007KT 25/17 A3013 RMK A01 T02480167  RH  061%=      5-min Rain = 0
KBY1 131415Z 25005KT 25/17 A3013 RMK A01 T02480167  RH  061%=      5-min Rain = 0
KBY1 131416Z 24006KT 25/17 A3013 RMK A01 T02490168  RH  060%=      5-min Rain = 0
KBY1 131417Z 25007KT 25/17 A3013 RMK A01 T02500167  RH  060%=      5-min Rain = 0
KBY1 131418Z 24009KT 25/17 A3013 RMK A01 T02500165  RH  059%=      5-min Rain = 0
KBY1 131419Z 26008KT 25/17 A3013 RMK A01 T02510166  RH  059%=      5-min Rain = 0
KBY1 131420Z 25007KT 25/17 A3013 RMK A01 T02520166  RH  059%=      5-min Rain = 0
KBY1 131421Z 24007KT 25/17 A3013 RMK A01 T02530166  RH  059%=      5-min Rain = 0
KBY1 131422Z 25006KT 25/17 A3013 RMK A01 T02530167  RH  059%=      5-min Rain = 0
KBY1 131423Z 25006KT 25/17 A3013 RMK A01 T02530168  RH  059%=      5-min Rain = 0
KBY1 131424Z 25006KT 25/17 A3013 RMK A01 T02540167  RH  059%=      5-min Rain = 0
KBY1 131425Z 25007KT 25/17 A3013 RMK A01 T02530167  RH  059%=      5-min Rain = 0
KBY1 131426Z 25007KT 25/17 A3013 RMK A01 T02530167  RH  059%=      5-min Rain = 0
KBY1 131427Z 24007KT 25/17 A3013 RMK A01 T02540166  RH  058%=      5-min Rain = 0
KBY1 131428Z 25006KT 25/17 A3013 RMK A01 T02530165  RH  058%=      5-min Rain = 0
KBY1 131429Z 25005KT 25/17 A3013 RMK A01 T02540167  RH  058%=      5-min Rain = 0
KBY1 131430Z 26005KT 26/17 A3013 RMK A01 T02550168  RH  059%=      5-min Rain = 0
KBY1 131431Z 25003KT 26/17 A3013 RMK A01 T02560168  RH  058%=      5-min Rain = 0
KBY1 131432Z 25004KT 26/17 A3013 RMK A01 T02570169  RH  058%=      5-min Rain = 0
KBY1 131433Z 25005KT 26/17 A3013 RMK A01 T02580167  RH  057%=      5-min Rain = 0
KBY1 131434Z 25005KT 26/17 A3013 RMK A01 T02580168  RH  057%=      5-min Rain = 0
KBY1 131435Z 26006KT 26/17 A3013 RMK A01 T02570167  RH  057%=      5-min Rain = 0
KBY1 131436Z 27005KT 26/17 A3013 RMK A01 T02570167  RH  058%=      5-min Rain = 0
KBY1 131437Z 27005KT 26/17 A3013 RMK A01 T02570168  RH  058%=      5-min Rain = 0
KBY1 131438Z 26004KT 26/17 A3013 RMK A01 T02570166  RH  057%=      5-min Rain = 0
KBY1 131439Z 27005KT 26/17 A3013 RMK A01 T02570166  RH  057%=      5-min Rain = 0
KBY1 131440Z 27005KT 26/17 A3013 RMK A01 T02570167  RH  058%=      5-min Rain = 0
KBY1 131441Z 27004KT 26/17 A3014 RMK A01 T02570167  RH  058%=      5-min Rain = 0
KBY1 131442Z 24003KT 26/17 A3014 RMK A01 T02570168  RH  058%=      5-min Rain = 0
KBY1 131443Z 24004KT 26/17 A3014 RMK A01 T02580167  RH  057%=      5-min Rain = 0
KBY1 131444Z 23007KT 26/17 A3014 RMK A01 T02590168  RH  057%=      5-min Rain = 0
KBY1 131445Z 26006KT 26/17 A3014 RMK A01 T02590168  RH  057%=      5-min Rain = 0
KBY1 131446Z 23007KT 26/17 A3013 RMK A01 T02590167  RH  057%=      5-min Rain = 0
KBY1 131447Z 25007KT 26/17 A3013 RMK A01 T02600168  RH  057%=      5-min Rain = 0
KBY1 131448Z 25008KT 26/17 A3013 RMK A01 T02600167  RH  056%=      5-min Rain = 0
KBY1 131449Z 24007KT 26/17 A3013 RMK A01 T02600166  RH  056%=      5-min Rain = 0
KBY1 131450Z 25005KT 26/17 A3013 RMK A01 T02610166  RH  056%=      5-min Rain = 0
KBY1 131451Z 25004KT 26/17 A3013 RMK A01 T02600167  RH  057%=      5-min Rain = 0
KBY1 131452Z 26004KT 26/17 A3013 RMK A01 T02610169  RH  057%=      5-min Rain = 0
KBY1 131453Z 25004KT 26/17 A3013 RMK A01 T02620169  RH  056%=      5-min Rain = 0
KBY1 131454Z 24006KT 26/17 A3013 RMK A01 T02630169  RH  056%=      5-min Rain = 0
KBY1 131455Z 23008KT 26/17 A3013 RMK A01 T02640168  RH  056%=      5-min Rain = 0
KBY1 131456Z 23006KT 27/17 A3013 RMK A01 T02650169  RH  055%=      5-min Rain = 0
KBY1 131457Z 25008KT 27/17 A3013 RMK A01 T02650169  RH  055%=      5-min Rain = 0
KBY1 131458Z 24008KT 27/17 A3013 RMK A01 T02660168  RH  055%=      5-min Rain = 0
KBY1 131459Z 23009KT 27/17 A3013 RMK A01 T02660168  RH  055%=      5-min Rain = 0
KBY1 131500Z 24007KT 27/17 A3013 RMK A01 T02670168  RH  055%=      5-min Rain = 0
KBY1 131501Z 25006KT 27/17 A3013 RMK A01 T02660168  RH  055%=      5-min Rain = 0
KBY1 131502Z 25007KT 27/17 A3013 RMK A01 T02670169  RH  055%=      5-min Rain = 0
KBY1 131503Z 25007KT 27/17 A3013 RMK A01 T02680168  RH  054%=      5-min Rain = 0
KBY1 131504Z 26005KT 27/17 A3013 RMK A01 T02680168  RH  054%=      5-min Rain = 0
KBY1 131505Z 26004KT 27/17 A3013 RMK A01 T02690168  RH  054%=      5-min Rain = 0
KBY1 131506Z 24003KT 27/17 A3013 RMK A01 T02700171  RH  055%=      5-min Rain = 0
KBY1 131507Z 24005KT 27/17 A3013 RMK A01 T02720171  RH  054%=      5-min Rain = 0
KBY1 131508Z 23005KT 27/17 A3013 RMK A01 T02730169  RH  053%=      5-min Rain = 0
KBY1 131509Z 22007KT 27/17 A3013 RMK A01 T02740170  RH  053%=      5-min Rain = 0
KBY1 131510Z 23005KT 27/17 A3013 RMK A01 T02740168  RH  052%=      5-min Rain = 0
KBY1 131511Z 25005KT 27/17 A3013 RMK A01 T02720167  RH  052%=      5-min Rain = 0
KBY1 131512Z 24005KT 27/17 A3013 RMK A01 T02720168  RH  053%=      5-min Rain = 0
KBY1 131513Z 23005KT 27/17 A3013 RMK A01 T02730168  RH  053%=      5-min Rain = 0
KBY1 131514Z 23007KT 27/17 A3013 RMK A01 T02730167  RH  052%=      5-min Rain = 0
KBY1 131515Z 21007KT 27/17 A3013 RMK A01 T02730168  RH  053%=      5-min Rain = 0
KBY1 131516Z 24005KT 27/17 A3013 RMK A01 T02730168  RH  053%=      5-min Rain = 0
KBY1 131517Z 23007KT 27/17 A3013 RMK A01 T02730168  RH  053%=      5-min Rain = 0
KBY1 131518Z 24008KT 27/17 A3013 RMK A01 T02730167  RH  052%=      5-min Rain = 0
KBY1 131519Z 24008KT 27/17 A3013 RMK A01 T02740165  RH  052%=      5-min Rain = 0
KBY1 131520Z 24007KT 27/17 A3013 RMK A01 T02740166  RH  052%=      5-min Rain = 0
KBY1 131521Z 24006KT 27/17 A3013 RMK A01 T02740167  RH  052%=      5-min Rain = 0
KBY1 131522Z 23009KT 27/17 A3013 RMK A01 T02740167  RH  052%=      5-min Rain = 0
KBY1 131523Z 24010KT 28/17 A3013 RMK A01 T02750166  RH  052%=      5-min Rain = 0
KBY1 131524Z 23007KT 27/17 A3013 RMK A01 T02740166  RH  052%=      5-min Rain = 0
KBY1 131525Z 24009G14KT 27/17 A3013 RMK A01 T02740166  RH  052%=      5-min Rain = 0
KBY1 131526Z 23010KT 27/17 A3013 RMK A01 T02740165  RH  051%=      5-min Rain = 0
KBY1 131527Z 24008KT 27/17 A3013 RMK A01 T02740166  RH  052%=      5-min Rain = 0
KBY1 131528Z 24011KT 28/17 A3013 RMK A01 T02750166  RH  051%=      5-min Rain = 0
KBY1 131529Z 24009KT 28/17 A3013 RMK A01 T02760165  RH  051%=      5-min Rain = 0
KBY1 131530Z 23008KT 28/17 A3013 RMK A01 T02760166  RH  051%=      5-min Rain = 0
KBY1 131531Z 24006KT 28/17 A3013 RMK A01 T02780168  RH  051%=      5-min Rain = 0
KBY1 131532Z 24008KT 28/17 A3013 RMK A01 T02800168  RH  051%=      5-min Rain = 0
KBY1 131533Z 24008KT 28/17 A3013 RMK A01 T02800166  RH  050%=      5-min Rain = 0
KBY1 131534Z 24008KT 28/17 A3013 RMK A01 T02800166  RH  050%=      5-min Rain = 0
KBY1 131535Z 25007KT 28/17 A3013 RMK A01 T02790166  RH  050%=      5-min Rain = 0
KBY1 131536Z 24005KT 28/17 A3013 RMK A01 T02790167  RH  050%=      5-min Rain = 0
KBY1 131537Z 23005KT 28/17 A3013 RMK A01 T02800169  RH  051%=      5-min Rain = 0
KBY1 131538Z 22007KT 28/17 A3013 RMK A01 T02820169  RH  050%=      5-min Rain = 0
KBY1 131539Z 20007KT 28/17 A3013 RMK A01 T02820168  RH  050%=      5-min Rain = 0
KBY1 131540Z 22006KT 28/17 A3013 RMK A01 T02820171  RH  051%=      5-min Rain = 0
KBY1 131541Z 22004KT 28/17 A3013 RMK A01 T02830167  RH  049%=      5-min Rain = 0
KBY1 131542Z 27003KT 28/17 A3013 RMK A01 T02830168  RH  050%=      5-min Rain = 0
KBY1 131543Z 22005KT 28/17 A3013 RMK A01 T02840169  RH  050%=      5-min Rain = 0
KBY1 131544Z 23004KT 29/17 A3013 RMK A01 T02850169  RH  049%=      5-min Rain = 0
KBY1 131545Z 24005KT 29/17 A3013 RMK A01 T02870168  RH  049%=      5-min Rain = 0
KBY1 131546Z 24004KT 29/17 A3013 RMK A01 T02870168  RH  048%=      5-min Rain = 0
KBY1 131547Z 25007KT 29/17 A3013 RMK A01 T02880168  RH  048%=      5-min Rain = 0
KBY1 131548Z 25008KT 29/17 A3013 RMK A01 T02880167  RH  048%=      5-min Rain = 0
KBY1 131549Z 24006KT 29/17 A3013 RMK A01 T02870167  RH  048%=      5-min Rain = 0
KBY1 131550Z 24008KT 29/17 A3013 RMK A01 T02870167  RH  048%=      5-min Rain = 0
KBY1 131551Z 23009KT 29/17 A3013 RMK A01 T02870166  RH  048%=      5-min Rain = 0
KBY1 131552Z 23007KT 29/17 A3013 RMK A01 T02870167  RH  048%=      5-min Rain = 0
KBY1 131553Z 24007KT 29/17 A3013 RMK A01 T02870167  RH  048%=      5-min Rain = 0
KBY1 131554Z 22008KT 29/17 A3013 RMK A01 T02880166  RH  048%=      5-min Rain = 0
KBY1 131555Z 23005KT 29/17 A3013 RMK A01 T02880167  RH  048%=      5-min Rain = 0
KBY1 131556Z 23006KT 29/17 A3013 RMK A01 T02880168  RH  048%=      5-min Rain = 0
KBY1 131557Z 22007KT 29/17 A3013 RMK A01 T02890167  RH  048%=      5-min Rain = 0
KBY1 131558Z 24007KT 29/17 A3013 RMK A01 T02890167  RH  048%=      5-min Rain = 0
KBY1 131559Z 23006KT 29/17 A3013 RMK A01 T02890166  RH  047%=      5-min Rain = 0
KBY1 131600Z 22004KT 29/17 A3013 RMK A01 T02890167  RH  048%=      5-min Rain = 0
KBY1 131601Z 23005KT 29/17 A3013 RMK A01 T02900170  RH  048%=      5-min Rain = 0
KBY1 131602Z 22006KT 29/17 A3013 RMK A01 T02910168  RH  048%=      5-min Rain = 0
KBY1 131603Z 21006KT 29/17 A3013 RMK A01 T02910169  RH  048%=      5-min Rain = 0
KBY1 131604Z 22006KT 29/17 A3013 RMK A01 T02910168  RH  047%=      5-min Rain = 0
KBY1 131605Z 22005KT 29/17 A3013 RMK A01 T02900168  RH  048%=      5-min Rain = 0
KBY1 131606Z 21006KT 29/17 A3013 RMK A01 T02900169  RH  048%=      5-min Rain = 0
KBY1 131607Z 21005KT 29/17 A3013 RMK A01 T02900169  RH  048%=      5-min Rain = 0
KBY1 131608Z 21006KT 29/17 A3013 RMK A01 T02900170  RH  048%=      5-min Rain = 0
KBY1 131609Z 23006KT 29/17 A3013 RMK A01 T02910170  RH  048%=      5-min Rain = 0
KBY1 131610Z 23005KT 29/17 A3013 RMK A01 T02910169  RH  048%=      5-min Rain = 0
KBY1 131611Z 24009KT 29/17 A3013 RMK A01 T02920168  RH  047%=      5-min Rain = 0
KBY1 131612Z 23008KT 29/17 A3013 RMK A01 T02920167  RH  047%=      5-min Rain = 0
KBY1 131613Z 21006KT 29/17 A3013 RMK A01 T02920170  RH  048%=      5-min Rain = 0
KBY1 131614Z 21006KT 29/17 A3013 RMK A01 T02930171  RH  048%=      5-min Rain = 0
KBY1 131615Z 21007KT 29/17 A3013 RMK A01 T02930172  RH  048%=      5-min Rain = 0
KBY1 131616Z 23006KT 29/17 A3013 RMK A01 T02930169  RH  047%=      5-min Rain = 0
KBY1 131617Z 24007KT 29/17 A3013 RMK A01 T02940166  RH  046%=      5-min Rain = 0
KBY1 131618Z 25006KT 30/17 A3013 RMK A01 T02950165  RH  046%=      5-min Rain = 0
KBY1 131619Z 24005KT 30/16 A3013 RMK A01 T02950164  RH  045%=      5-min Rain = 0
KBY1 131620Z 28003KT 30/16 A3013 RMK A01 T02960164  RH  045%=      5-min Rain = 0
KBY1 131621Z 32003KT 30/17 A3013 RMK A01 T02960170  RH  046%=      5-min Rain = 0
KBY1 131622Z 32004KT 30/17 A3013 RMK A01 T02960173  RH  047%=      5-min Rain = 0
KBY1 131623Z 31007KT 30/18 A3013 RMK A01 T02960175  RH  048%=      5-min Rain = 0
KBY1 131624Z 32008KT 29/18 A3013 RMK A01 T02940176  RH  049%=      5-min Rain = 0
KBY1 131625Z 32006KT 29/18 A3013 RMK A01 T02920178  RH  050%=      5-min Rain = 0
KBY1 131626Z 31003KT 29/18 A3013 RMK A01 T02920176  RH  050%=      5-min Rain = 0
KBY1 131627Z 31005KT 29/18 A3013 RMK A01 T02940175  RH  049%=      5-min Rain = 0
KBY1 131628Z 33005KT 30/17 A3013 RMK A01 T02950174  RH  048%=      5-min Rain = 0
KBY1 131629Z 35004KT 30/18 A3013 RMK A01 T02950175  RH  048%=      5-min Rain = 0
KBY1 131630Z 32006KT 30/18 A3013 RMK A01 T02960179  RH  049%=      5-min Rain = 0
KBY1 131631Z 32006KT 30/18 A3013 RMK A01 T02980178  RH  048%=      5-min Rain = 0
KBY1 131632Z 33005KT 30/18 A3013 RMK A01 T02980179  RH  049%=      5-min Rain = 0
KBY1 131633Z 34006KT 30/18 A3013 RMK A01 T02980178  RH  048%=      5-min Rain = 0
KBY1 131634Z 33005KT 30/18 A3013 RMK A01 T02980176  RH  048%=      5-min Rain = 0
KBY1 131635Z 35003KT 30/18 A3013 RMK A01 T02980175  RH  048%=      5-min Rain = 0
KBY1 131636Z 33004KT 30/18 A3013 RMK A01 T03000176  RH  048%=      5-min Rain = 0
KBY1 131637Z 35006KT 30/18 A3013 RMK A01 T03010176  RH  047%=      5-min Rain = 0
KBY1 131638Z 33005KT 30/18 A3013 RMK A01 T03010176  RH  047%=      5-min Rain = 0
KBY1 131639Z 35006KT 30/18 A3013 RMK A01 T03020177  RH  047%=      5-min Rain = 0
KBY1 131640Z 35005KT 30/18 A3013 RMK A01 T03030179  RH  047%=      5-min Rain = 0
KBY1 131641Z 35003KT 31/18 A3013 RMK A01 T03060180  RH  047%=      5-min Rain = 0
KBY1 131642Z 00006KT 31/18 A3013 RMK A01 T03110177  RH  045%=      5-min Rain = 0
KBY1 131643Z 35006KT 31/18 A3013 RMK A01 T03110175  RH  044%=      5-min Rain = 0
KBY1 131644Z 01005KT 31/17 A3013 RMK A01 T03100172  RH  044%=      5-min Rain = 0
KBY1 131645Z 02004KT 31/17 A3013 RMK A01 T03070172  RH  044%=      5-min Rain = 0
KBY1 131646Z 34004KT 31/17 A3013 RMK A01 T03070172  RH  044%=      5-min Rain = 0
KBY1 131647Z 35005KT 31/17 A3013 RMK A01 T03070169  RH  043%=      5-min Rain = 0
KBY1 131648Z 00005KT 31/17 A3013 RMK A01 T03070174  RH  045%=      5-min Rain = 0
KBY1 131649Z 35005KT 31/17 A3013 RMK A01 T03080174  RH  045%=      5-min Rain = 0
KBY1 131650Z 36006KT 31/17 A3013 RMK A01 T03080173  RH  044%=      5-min Rain = 0
KBY1 131651Z 33006KT 31/17 A3013 RMK A01 T03070171  RH  044%=      5-min Rain = 0
KBY1 131652Z 35006KT 31/17 A3013 RMK A01 T03050168  RH  044%=      5-min Rain = 0
KBY1 131653Z 33005KT 30/17 A3013 RMK A01 T03040167  RH  044%=      5-min Rain = 0
KBY1 131654Z 35005KT 30/17 A3013 RMK A01 T03020169  RH  045%=      5-min Rain = 0
KBY1 131655Z 35004KT 30/17 A3013 RMK A01 T03010174  RH  046%=      5-min Rain = 0
KBY1 131656Z 01006KT 30/17 A3013 RMK A01 T03020171  RH  046%=      5-min Rain = 0
KBY1 131657Z 02005KT 30/17 A3013 RMK A01 T03020172  RH  046%=      5-min Rain = 0
KBY1 131658Z 36005KT 30/17 A3013 RMK A01 T03020173  RH  046%=      5-min Rain = 0
KBY1 131659Z 36007KT 30/17 A3013 RMK A01 T03020171  RH  045%=      5-min Rain = 0
KBY1 131700Z 02006KT 30/17 A3013 RMK A01 T03020171  RH  045%=      5-min Rain = 0
KBY1 131701Z 36006KT 30/17 A3013 RMK A01 T03020172  RH  046%=      5-min Rain = 0
KBY1 131702Z 36007KT 30/17 A3013 RMK A01 T03020170  RH  045%=      5-min Rain = 0
KBY1 131703Z 35006KT 30/17 A3013 RMK A01 T03030170  RH  045%=      5-min Rain = 0
KBY1 131704Z 34006KT 30/17 A3013 RMK A01 T03020169  RH  045%=      5-min Rain = 0
KBY1 131705Z 35006KT 30/17 A3013 RMK A01 T03020168  RH  045%=      5-min Rain = 0
KBY1 131706Z 35007KT 30/17 A3013 RMK A01 T03030169  RH  045%=      5-min Rain = 0
KBY1 131707Z 34005KT 30/17 A3013 RMK A01 T03040170  RH  045%=      5-min Rain = 0
KBY1 131708Z 35006KT 31/17 A3013 RMK A01 T03060170  RH  044%=      5-min Rain = 0
KBY1 131709Z 02005KT 31/17 A3013 RMK A01 T03070168  RH  043%=      5-min Rain = 0
KBY1 131710Z 01005KT 31/17 A3013 RMK A01 T03080168  RH  043%=      5-min Rain = 0
KBY1 131711Z 02006KT 31/17 A3013 RMK A01 T03110168  RH  042%=      5-min Rain = 0
KBY1 131712Z 03005KT 31/17 A3013 RMK A01 T03140169  RH  042%=      5-min Rain = 0
KBY1 131713Z 03006KT 32/17 A3013 RMK A01 T03160168  RH  041%=      5-min Rain = 0
KBY1 131714Z 01006KT 32/17 A3013 RMK A01 T03170168  RH  041%=      5-min Rain = 0
KBY1 131715Z 03006KT 32/17 A3013 RMK A01 T03150169  RH  041%=      5-min Rain = 0
KBY1 131716Z 05005KT 31/17 A3013 RMK A01 T03130166  RH  041%=      5-min Rain = 0
KBY1 131717Z 03005KT 31/17 A3013 RMK A01 T03120167  RH  042%=      5-min Rain = 0
KBY1 131718Z 03004KT 31/17 A3013 RMK A01 T03130165  RH  041%=      5-min Rain = 0
KBY1 131719Z 05004KT 31/17 A3013 RMK A01 T03140166  RH  041%=      5-min Rain = 0
KBY1 131720Z 03003KT 32/17 A3013 RMK A01 T03150166  RH  041%=      5-min Rain = 0
KBY1 131721Z 08003KT 32/16 A3013 RMK A01 T03160163  RH  040%=      5-min Rain = 0
KBY1 131722Z 09001KT 32/16 A3013 RMK A01 T03150163  RH  040%=      5-min Rain = 0
KBY1 131723Z 31001KT 32/17 A3013 RMK A01 T03160165  RH  040%=      5-min Rain = 0
KBY1 131724Z 30001KT 32/16 A3013 RMK A01 T03190163  RH  039%=      5-min Rain = 0
KBY1 131725Z 33002KT 32/16 A3013 RMK A01 T03210162  RH  039%=      5-min Rain = 0
KBY1 131726Z 22004KT 32/16 A3013 RMK A01 T03210162  RH  039%=      5-min Rain = 0
KBY1 131727Z 22003KT 32/16 A3013 RMK A01 T03200161  RH  038%=      5-min Rain = 0
KBY1 131728Z 23003KT 32/16 A3013 RMK A01 T03190161  RH  039%=      5-min Rain = 0
KBY1 131729Z 24004KT 32/17 A3013 RMK A01 T03180165  RH  040%=      5-min Rain = 0
KBY1 131730Z 29005KT 32/17 A3013 RMK A01 T03170168  RH  041%=      5-min Rain = 0
KBY1 131731Z 29008KT 32/17 A3013 RMK A01 T03160168  RH  041%=      5-min Rain = 0
KBY1 131732Z 29006KT 32/17 A3013 RMK A01 T03150167  RH  041%=      5-min Rain = 0
KBY1 131733Z 32008KT 31/17 A3013 RMK A01 T03140166  RH  041%=      5-min Rain = 0
KBY1 131734Z 33009KT 31/17 A3013 RMK A01 T03140165  RH  041%=      5-min Rain = 0
KBY1 131735Z 32006KT 32/17 A3013 RMK A01 T03150165  RH  040%=      5-min Rain = 0
KBY1 131736Z 35004KT 32/17 A3013 RMK A01 T03150165  RH  040%=      5-min Rain = 0
KBY1 131737Z 34004KT 32/16 A3013 RMK A01 T03150163  RH  040%=      5-min Rain = 0
KBY1 131738Z 29003KT 32/16 A3013 RMK A01 T03150164  RH  040%=      5-min Rain = 0
KBY1 131739Z 28004KT 32/17 A3013 RMK A01 T03150165  RH  041%=      5-min Rain = 0
KBY1 131740Z 28005KT 31/17 A3013 RMK A01 T03140166  RH  041%=      5-min Rain = 0
KBY1 131741Z 27006KT 31/16 A3013 RMK A01 T03140164  RH  041%=      5-min Rain = 0
KBY1 131742Z 26004KT 31/16 A3013 RMK A01 T03140164  RH  040%=      5-min Rain = 0
KBY1 131743Z 31005KT 31/16 A3013 RMK A01 T03140164  RH  041%=      5-min Rain = 0
KBY1 131744Z 30006KT 31/17 A3013 RMK A01 T03140165  RH  041%=      5-min Rain = 0
KBY1 131745Z 29007KT 31/16 A3013 RMK A01 T03140164  RH  041%=      5-min Rain = 0
KBY1 131746Z 31005KT 31/17 A3013 RMK A01 T03130165  RH  041%=      5-min Rain = 0
KBY1 131747Z 28005KT 31/17 A3013 RMK A01 T03140165  RH  041%=      5-min Rain = 0
KBY1 131748Z 30005KT 32/16 A3013 RMK A01 T03150164  RH  040%=      5-min Rain = 0
KBY1 131749Z 30006KT 31/16 A3013 RMK A01 T03130163  RH  041%=      5-min Rain = 0
KBY1 131750Z 30004KT 31/16 A3013 RMK A01 T03120163  RH  041%=      5-min Rain = 0
KBY1 131751Z 33002KT 31/16 A3013 RMK A01 T03110160  RH  040%=      5-min Rain = 0
KBY1 131752Z 35001KT 31/16 A3013 RMK A01 T03110159  RH  040%=      5-min Rain = 0
KBY1 131753Z 35002KT 31/16 A3013 RMK A01 T03110161  RH  040%=      5-min Rain = 0
KBY1 131754Z 34005KT 31/16 A3013 RMK A01 T03120162  RH  041%=      5-min Rain = 0
KBY1 131755Z 30005KT 31/16 A3013 RMK A01 T03120162  RH  040%=      5-min Rain = 0
KBY1 131756Z 30005KT 31/16 A3013 RMK A01 T03120161  RH  040%=      5-min Rain = 0
KBY1 131757Z 34003KT 31/16 A3013 RMK A01 T03120162  RH  040%=      5-min Rain = 0
KBY1 131758Z 35002KT 31/16 A3013 RMK A01 T03120162  RH  040%=      5-min Rain = 0
KBY1 131759Z 35004KT 31/16 A3013 RMK A01 T03130163  RH  040%=      5-min Rain = 0
KBY1 131800Z 32004KT 31/16 A3013 RMK A01 T03140161  RH  040%=      5-min Rain = 0
KBY1 131801Z 32006KT 32/16 A3013 RMK A01 T03150164  RH  040%=      5-min Rain = 0
KBY1 131802Z 30006KT 32/17 A3013 RMK A01 T03170166  RH  040%=      5-min Rain = 0
KBY1 131803Z 31006KT 32/17 A3013 RMK A01 T03200165  RH  039%=      5-min Rain = 0
KBY1 131804Z 32005KT 32/16 A3013 RMK A01 T03190163  RH  039%=      5-min Rain = 0
KBY1 131805Z 32004KT 32/16 A3013 RMK A01 T03180164  RH  040%=      5-min Rain = 0
KBY1 131806Z 30004KT 32/17 A3013 RMK A01 T03180165  RH  040%=      5-min Rain = 0
KBY1 131807Z 30004KT 32/16 A3013 RMK A01 T03180164  RH  040%=      5-min Rain = 0
KBY1 131808Z 31004KT 32/17 A3013 RMK A01 T03220165  RH  039%=      5-min Rain = 0
KBY1 131809Z 31003KT 32/16 A3013 RMK A01 T03230162  RH  038%=      5-min Rain = 0
KBY1 131810Z 32003KT 32/16 A3013 RMK A01 T03230163  RH  038%=      5-min Rain = 0
KBY1 131811Z 33003KT 32/16 A3013 RMK A01 T03240160  RH  037%=      5-min Rain = 0
KBY1 131812Z 29005KT 33/16 A3012 RMK A01 T03250162  RH  038%=      5-min Rain = 0
KBY1 131813Z 30008KT 33/17 A3012 RMK A01 T03280166  RH  038%=      5-min Rain = 0
KBY1 131814Z 32005KT 33/17 A3012 RMK A01 T03280165  RH  038%=      5-min Rain = 0
KBY1 131815Z 30007KT 33/16 A3012 RMK A01 T03270164  RH  038%=      5-min Rain = 0
KBY1 131816Z 30006KT 33/17 A3012 RMK A01 T03280166  RH  038%=      5-min Rain = 0
KBY1 131817Z 29007KT 33/16 A3012 RMK A01 T03300164  RH  037%=      5-min Rain = 0
KBY1 131818Z 27005KT 33/17 A3012 RMK A01 T03270165  RH  038%=      5-min Rain = 0
KBY1 131819Z 26005KT 33/16 A3012 RMK A01 T03280160  RH  037%=      5-min Rain = 0
KBY1 131820Z 30005KT 33/16 A3012 RMK A01 T03280162  RH  037%=      5-min Rain = 0
KBY1 131821Z 30006KT 33/16 A3012 RMK A01 T03310164  RH  037%=      5-min Rain = 0
KBY1 131822Z 30004KT 33/16 A3012 RMK A01 T03310163  RH  037%=      5-min Rain = 0
KBY1 131823Z 31008KT 33/17 A3012 RMK A01 T03300167  RH  038%=      5-min Rain = 0
KBY1 131824Z 29010KT 33/17 A3012 RMK A01 T03310174  RH  039%=      5-min Rain = 0
KBY1 131825Z 30010KT 33/17 A3012 RMK A01 T03320170  RH  038%=      5-min Rain = 0
KBY1 131826Z 32008KT 34/17 A3012 RMK A01 T03350174  RH  038%=      5-min Rain = 0
KBY1 131827Z 32007KT 34/18 A3012 RMK A01 T03360175  RH  038%=      5-min Rain = 0
KBY1 131828Z 33009KT 34/17 A3012 RMK A01 T03380174  RH  038%=      5-min Rain = 0
KBY1 131829Z 35007KT 34/17 A3012 RMK A01 T03390174  RH  038%=      5-min Rain = 0
KBY1 131830Z 35009KT 34/17 A3012 RMK A01 T03410174  RH  037%=      5-min Rain = 0
KBY1 131831Z 01008KT 34/17 A3012 RMK A01 T03390170  RH  037%=      5-min Rain = 0
KBY1 131832Z 00008KT 34/17 A3011 RMK A01 T03350172  RH  038%=      5-min Rain = 0
KBY1 131833Z 34006KT 33/18 A3011 RMK A01 T03340176  RH  039%=      5-min Rain = 0
KBY1 131834Z 34007KT 34/17 A3011 RMK A01 T03380173  RH  038%=      5-min Rain = 0
KBY1 131835Z 33007KT 34/16 A3011 RMK A01 T03380164  RH  035%=      5-min Rain = 0
KBY1 131836Z 29004KT 34/17 A3011 RMK A01 T03360169  RH  037%=      5-min Rain = 0
KBY1 131837Z 02005KT 34/17 A3011 RMK A01 T03360166  RH  036%=      5-min Rain = 0
KBY1 131838Z 36005KT 34/16 A3011 RMK A01 T03360164  RH  036%=      5-min Rain = 0
KBY1 131839Z 00003KT 34/16 A3011 RMK A01 T03370162  RH  035%=      5-min Rain = 0
KBY1 131840Z 34005KT 34/16 A3011 RMK A01 T03380162  RH  035%=      5-min Rain = 0
KBY1 131841Z 34005KT 34/16 A3011 RMK A01 T03370160  RH  035%=      5-min Rain = 0
KBY1 131842Z 35006KT 34/16 A3011 RMK A01 T03350162  RH  036%=      5-min Rain = 0
KBY1 131843Z 33004KT 34/16 A3011 RMK A01 T03360164  RH  036%=      5-min Rain = 0
KBY1 131844Z 34007KT 34/17 A3011 RMK A01 T03400174  RH  037%=      5-min Rain = 0
KBY1 131845Z 34007KT 34/17 A3011 RMK A01 T03400173  RH  037%=      5-min Rain = 0
KBY1 131846Z 30007KT 34/17 A3011 RMK A01 T03360173  RH  038%=      5-min Rain = 0
KBY1 131847Z 33009KT 34/17 A3011 RMK A01 T03350172  RH  038%=      5-min Rain = 0
KBY1 131848Z 33009KT 33/17 A3011 RMK A01 T03340171  RH  038%=      5-min Rain = 0
KBY1 131849Z 31009KT 33/17 A3011 RMK A01 T03340171  RH  038%=      5-min Rain = 0
KBY1 131850Z 30006KT 33/17 A3011 RMK A01 T03320169  RH  038%=      5-min Rain = 0
KBY1 131851Z 31007KT 33/17 A3011 RMK A01 T03310171  RH  038%=      5-min Rain = 0
KBY1 131852Z 33007KT 33/17 A3011 RMK A01 T03330174  RH  039%=      5-min Rain = 0
KBY1 131853Z 34008KT 34/17 A3011 RMK A01 T03350174  RH  038%=      5-min Rain = 0
KBY1 131854Z 34006KT 33/17 A3011 RMK A01 T03330171  RH  038%=      5-min Rain = 0
KBY1 131855Z 32007KT 33/17 A3011 RMK A01 T03320171  RH  038%=      5-min Rain = 0
KBY1 131856Z 33008KT 33/17 A3011 RMK A01 T03310172  RH  039%=      5-min Rain = 0
KBY1 131857Z 34006KT 33/17 A3011 RMK A01 T03290171  RH  039%=      5-min Rain = 0
KBY1 131858Z 33007KT 33/17 A3011 RMK A01 T03300172  RH  039%=      5-min Rain = 0
KBY1 131859Z 34006KT 33/17 A3011 RMK A01 T03310172  RH  039%=      5-min Rain = 0
KBY1 131900Z 35006KT 33/17 A3011 RMK A01 T03340167  RH  037%=      5-min Rain = 0
KBY1 131901Z 01008KT 33/17 A3011 RMK A01 T03340167  RH  037%=      5-min Rain = 0
KBY1 131902Z 36007KT 33/17 A301 RMK A01 T03340168  RH  037%=      5-min Rain = 0
KBY1 131903Z 35006KT 33/17 A301 RMK A01 T03340171  RH  038%=      5-min Rain = 0
KBY1 131904Z 35009KT 34/17 A301 RMK A01 T03360173  RH  038%=      5-min Rain = 0
KBY1 131905Z 00009KT 34/17 A301 RMK A01 T03350172  RH  038%=      5-min Rain = 0
KBY1 131906Z 00006KT 33/17 A301 RMK A01 T03320173  RH  039%=      5-min Rain = 0
KBY1 131907Z 35009KT 33/17 A301 RMK A01 T03320172  RH  039%=      5-min Rain = 0
KBY1 131908Z 01008KT 33/17 A301 RMK A01 T03330172  RH  038%=      5-min Rain = 0
KBY1 131909Z 36008KT 33/17 A301 RMK A01 T03330173  RH  039%=      5-min Rain = 0
KBY1 131910Z 33006KT 33/17 A301 RMK A01 T03330174  RH  039%=      5-min Rain = 0
KBY1 131911Z 32005KT 33/17 A301 RMK A01 T03330172  RH  038%=      5-min Rain = 0
KBY1 131912Z 33005KT 33/17 A301 RMK A01 T03330171  RH  038%=      5-min Rain = 0
KBY1 131913Z 01004KT 33/17 A301 RMK A01 T03340170  RH  038%=      5-min Rain = 0
KBY1 131914Z 00006KT 34/17 A301 RMK A01 T03350165  RH  036%=      5-min Rain = 0
KBY1 131915Z 04010KT 34/17 A301 RMK A01 T03350169  RH  037%=      5-min Rain = 0
KBY1 131916Z 04008KT 33/17 A301 RMK A01 T03330168  RH  037%=      5-min Rain = 0
KBY1 131917Z 03007KT 33/17 A3009 RMK A01 T03310166  RH  037%=      5-min Rain = 0
KBY1 131918Z 04007KT 33/17 A3009 RMK A01 T03310166  RH  037%=      5-min Rain = 0
KBY1 131919Z 06008KT 33/17 A3009 RMK A01 T03310165  RH  037%=      5-min Rain = 0
KBY1 131920Z 05007KT 33/16 A3009 RMK A01 T03310164  RH  037%=      5-min Rain = 0
KBY1 131921Z 07005KT 33/16 A3009 RMK A01 T03310164  RH  037%=      5-min Rain = 0
KBY1 131922Z 07005KT 33/16 A3009 RMK A01 T03310164  RH  037%=      5-min Rain = 0
KBY1 131923Z 08005KT 33/16 A3009 RMK A01 T03310164  RH  037%=      5-min Rain = 0
KBY1 131924Z 08006KT 33/17 A3009 RMK A01 T03300166  RH  037%=      5-min Rain = 0
KBY1 131925Z 09006KT 33/17 A3009 RMK A01 T03300170  RH  039%=      5-min Rain = 0
KBY1 131926Z 14005KT 33/17 A3009 RMK A01 T03320168  RH  038%=      5-min Rain = 0
KBY1 131927Z 07007G13KT 33/17 A3009 RMK A01 T03320165  RH  037%=      5-min Rain = 0
KBY1 131928Z 07012KT 33/17 A3009 RMK A01 T03340174  RH  039%=      5-min Rain = 0
KBY1 131929Z 09011KT 34/17 A3009 RMK A01 T03360173  RH  038%=      5-min Rain = 0
KBY1 131930Z 09011KT 34/17 A301 RMK A01 T03360166  RH  036%=      5-min Rain = 0
KBY1 131931Z 10014KT 33/17 A301 RMK A01 T03320171  RH  038%=      5-min Rain = 0
KBY1 131932Z 10015KT 33/18 A301 RMK A01 T03280177  RH  041%=      5-min Rain = 0
KBY1 131933Z 10010KT 32/17 A301 RMK A01 T03230174  RH  041%=      5-min Rain = 0
KBY1 131934Z 08010KT 32/17 A301 RMK A01 T03200172  RH  041%=      5-min Rain = 0
KBY1 131935Z 08010KT 32/17 A3009 RMK A01 T03210171  RH  041%=      5-min Rain = 0
KBY1 131936Z 09010KT 32/17 A3009 RMK A01 T03210168  RH  040%=      5-min Rain = 0
KBY1 131937Z 09011KT 32/17 A3009 RMK A01 T03180168  RH  041%=      5-min Rain = 0
KBY1 131938Z 09008KT 32/17 A3009 RMK A01 T03170167  RH  041%=      5-min Rain = 0
KBY1 131939Z 09009KT 32/17 A3009 RMK A01 T03170166  RH  040%=      5-min Rain = 0
KBY1 131940Z 09010KT 32/16 A3009 RMK A01 T03180163  RH  039%=      5-min Rain = 0
KBY1 131941Z 09007KT 32/17 A3009 RMK A01 T03170165  RH  040%=      5-min Rain = 0
KBY1 131942Z 08007KT 32/16 A3009 RMK A01 T03170163  RH  040%=      5-min Rain = 0
KBY1 131943Z 10011KT 32/16 A3009 RMK A01 T03170162  RH  039%=      5-min Rain = 0
KBY1 131944Z 10010KT 32/16 A3009 RMK A01 T03160159  RH  039%=      5-min Rain = 0
KBY1 131945Z 10010KT 32/16 A3009 RMK A01 T03160162  RH  040%=      5-min Rain = 0
KBY1 131946Z 10011KT 32/16 A3009 RMK A01 T03150161  RH  039%=      5-min Rain = 0
KBY1 131947Z 10011KT 31/16 A3009 RMK A01 T03140161  RH  040%=      5-min Rain = 0
KBY1 131948Z 10011KT 31/16 A3009 RMK A01 T03130163  RH  041%=      5-min Rain = 0
KBY1 131949Z 10010KT 31/16 A3009 RMK A01 T03120164  RH  041%=      5-min Rain = 0
KBY1 131950Z 11009KT 31/16 A3009 RMK A01 T03120162  RH  040%=      5-min Rain = 0
KBY1 131951Z 10009KT 32/16 A3009 RMK A01 T03150160  RH  039%=      5-min Rain = 0
KBY1 131952Z 11009KT 32/16 A3009 RMK A01 T03180159  RH  039%=      5-min Rain = 0
KBY1 131953Z 12010KT 32/16 A3009 RMK A01 T03190157  RH  038%=      5-min Rain = 0
KBY1 131954Z 14010KT 32/16 A3009 RMK A01 T03220159  RH  038%=      5-min Rain = 0
KBY1 131955Z 15008KT 32/16 A3009 RMK A01 T03240162  RH  038%=      5-min Rain = 0
KBY1 131956Z 16009KT 33/17 A3009 RMK A01 T03260166  RH  038%=      5-min Rain = 0
KBY1 131957Z 16010KT 33/17 A3009 RMK A01 T03260168  RH  039%=      5-min Rain = 0
KBY1 131958Z 13010KT 32/16 A3009 RMK A01 T03210161  RH  038%=      5-min Rain = 0
KBY1 131959Z 12011KT 32/16 A3009 RMK A01 T03180157  RH  038%=      5-min Rain = 0
KBY1 132000Z 12010KT 32/16 A3009 RMK A01 T03150159  RH  039%=      5-min Rain = 0
KBY1 132001Z 12008KT 31/16 A3009 RMK A01 T03110160  RH  040%=      5-min Rain = 0
KBY1 132002Z 11007KT 31/16 A3009 RMK A01 T03100158  RH  040%=      5-min Rain = 0
KBY1 132003Z 11007KT 31/16 A3009 RMK A01 T03100160  RH  040%=      5-min Rain = 0
KBY1 132004Z 12009KT 31/16 A3009 RMK A01 T03110158  RH  040%=      5-min Rain = 0
KBY1 132005Z 13008KT 31/16 A3009 RMK A01 T03120160  RH  040%=      5-min Rain = 0
KBY1 132006Z 14006KT 31/16 A3009 RMK A01 T03110161  RH  040%=      5-min Rain = 0
KBY1 132007Z 14005G10KT 31/16 A3009 RMK A01 T03110158  RH  040%=      5-min Rain = 0
KBY1 132008Z 15008KT 31/16 A3009 RMK A01 T03120156  RH  039%=      5-min Rain = 0
KBY1 132009Z 16007KT 31/16 A3009 RMK A01 T03120157  RH  039%=      5-min Rain = 0
KBY1 132010Z 16007KT 31/16 A301 RMK A01 T03110158  RH  040%=      5-min Rain = 0
KBY1 132011Z 20008KT 31/16 A301 RMK A01 T03090161  RH  041%=      5-min Rain = 0
KBY1 132012Z 22011KT 31/17 A301 RMK A01 T03050165  RH  043%=      5-min Rain = 0
KBY1 132013Z 21009KT 30/17 A301 RMK A01 T02990166  RH  045%=      5-min Rain = 0
KBY1 132014Z 21006KT 30/17 A301 RMK A01 T02950166  RH  046%=      5-min Rain = 0
KBY1 132015Z 19006KT 29/17 A301 RMK A01 T02920167  RH  047%=      5-min Rain = 0
KBY1 132016Z 19006KT 29/16 A301 RMK A01 T02920163  RH  046%=      5-min Rain = 0
KBY1 132017Z 17005KT 29/16 A301 RMK A01 T02920163  RH  046%=      5-min Rain = 0
KBY1 132018Z 16004KT 29/16 A301 RMK A01 T02920164  RH  046%=      5-min Rain = 0
KBY1 132019Z 15003KT 29/16 A301 RMK A01 T02920164  RH  046%=      5-min Rain = 0
KBY1 132020Z 15004KT 29/17 A301 RMK A01 T02910165  RH  046%=      5-min Rain = 0
KBY1 132021Z 17004KT 29/16 A301 RMK A01 T02920163  RH  046%=      5-min Rain = 0
KBY1 132022Z 16001KT 29/16 A301 RMK A01 T02920164  RH  046%=      5-min Rain = 0
KBY1 132023Z 15002KT 29/16 A301 RMK A01 T02920164  RH  046%=      5-min Rain = 0
KBY1 132024Z 17003KT 29/16 A301 RMK A01 T02920163  RH  046%=      5-min Rain = 0
KBY1 132025Z 19003KT 29/16 A301 RMK A01 T02920161  RH  045%=      5-min Rain = 0
KBY1 132026Z 21005KT 29/16 A301 RMK A01 T02920159  RH  045%=      5-min Rain = 0
KBY1 132027Z 18004KT 29/16 A301 RMK A01 T02910159  RH  045%=      5-min Rain = 0
KBY1 132028Z 18003KT 29/16 A301 RMK A01 T02910162  RH  046%=      5-min Rain = 0
KBY1 132029Z 17004KT 29/16 A301 RMK A01 T02910162  RH  046%=      5-min Rain = 0
KBY1 132030Z 18006KT 29/16 A301 RMK A01 T02910160  RH  045%=      5-min Rain = 0
KBY1 132031Z 19005KT 29/16 A301 RMK A01 T02900159  RH  045%=      5-min Rain = 0
KBY1 132032Z 19004KT 29/16 A301 RMK A01 T02880160  RH  046%=      5-min Rain = 0
KBY1 132033Z 19005KT 29/16 A301 RMK A01 T02860161  RH  047%=      5-min Rain = 0
KBY1 132034Z 20005KT 29/16 A301 RMK A01 T02850160  RH  047%=      5-min Rain = 0
KBY1 132035Z 18004KT 28/16 A3011 RMK A01 T02840161  RH  047%=      5-min Rain = 0
KBY1 132036Z 17004KT 28/16 A3011 RMK A01 T02840160  RH  047%=      5-min Rain = 0
KBY1 132037Z 17004KT 28/16 A3011 RMK A01 T02840161  RH  047%=      5-min Rain = 0
KBY1 132038Z 16005KT 28/16 A3011 RMK A01 T02840164  RH  048%=      5-min Rain = 0
KBY1 132039Z 19006KT 28/17 A3011 RMK A01 T02830165  RH  049%=      5-min Rain = 0
KBY1 132040Z 20003KT 28/17 A3011 RMK A01 T02820166  RH  049%=      5-min Rain = 0
KBY1 132041Z 19005KT 28/17 A3011 RMK A01 T02810167  RH  050%=      5-min Rain = 0
KBY1 132042Z 20006KT 28/17 A3011 RMK A01 T02800168  RH  051%=      5-min Rain = 0
KBY1 132043Z 21004KT 28/17 A3011 RMK A01 T02780168  RH  051%=      5-min Rain = 0
KBY1 132044Z 20003KT 28/17 A3011 RMK A01 T02760165  RH  051%=      5-min Rain = 0
KBY1 132045Z 20001KT 28/17 A3011 RMK A01 T02760166  RH  051%=      5-min Rain = 0
KBY1 132046Z 25002KT 28/17 A3011 RMK A01 T02750166  RH  051%=      5-min Rain = 0
KBY1 132047Z 25005KT 28/17 A3011 RMK A01 T02750166  RH  051%=      5-min Rain = 0
KBY1 132048Z 25004KT 28/17 A3011 RMK A01 T02750166  RH  051%=      5-min Rain = 0
KBY1 132049Z 25002KT 28/17 A3011 RMK A01 T02750167  RH  052%=      5-min Rain = 0
KBY1 132050Z 29003KT 28/17 A3011 RMK A01 T02750168  RH  052%=      5-min Rain = 0
KBY1 132051Z 33004KT 28/17 A3011 RMK A01 T02750171  RH  053%=      5-min Rain = 0
KBY1 132052Z 36003KT 27/18 A3011 RMK A01 T02730176  RH  055%=      5-min Rain = 0
KBY1 132053Z 34003KT 27/18 A3011 RMK A01 T02720175  RH  055%=      5-min Rain = 0
KBY1 132054Z 02002KT 27/18 A3011 RMK A01 T02710176  RH  056%=      5-min Rain = 0
KBY1 132055Z 07002KT 27/18 A3011 RMK A01 T02700175  RH  056%=      5-min Rain = 0
KBY1 132056Z 08002KT 27/17 A3011 RMK A01 T02700172  RH  055%=      5-min Rain = 0
KBY1 132057Z 09002KT 27/17 A3011 RMK A01 T02700171  RH  055%=      5-min Rain = 0
KBY1 132058Z 09001KT 27/17 A3011 RMK A01 T02700173  RH  055%=      5-min Rain = 0
KBY1 132059Z 00000KT 27/17 A3011 RMK A01 T02700174  RH  056%=      5-min Rain = 0
KBY1 132100Z 18000KT 27/18 A3011 RMK A01 T02710175  RH  056%=      5-min Rain = 0
KBY1 132101Z 18001KT 27/17 A3011 RMK A01 T02710172  RH  054%=      5-min Rain = 0
KBY1 132102Z 14002KT 27/17 A3011 RMK A01 T02710173  RH  055%=      5-min Rain = 0
KBY1 132103Z 13002KT 27/18 A3011 RMK A01 T02710177  RH  056%=      5-min Rain = 0
KBY1 132104Z 12002KT 27/17 A3011 RMK A01 T02720172  RH  054%=      5-min Rain = 0
KBY1 132105Z 11002KT 27/17 A3011 RMK A01 T02710173  RH  055%=      5-min Rain = 0
KBY1 132106Z 12002KT 27/17 A3011 RMK A01 T02720172  RH  054%=      5-min Rain = 0
KBY1 132107Z 14003KT 27/18 A3011 RMK A01 T02720176  RH  056%=      5-min Rain = 0
KBY1 132108Z 14004KT 27/18 A3011 RMK A01 T02730177  RH  056%=      5-min Rain = 0
KBY1 132109Z 13004KT 27/18 A3011 RMK A01 T02730176  RH  056%=      5-min Rain = 0
KBY1 132110Z 13004KT 27/18 A3011 RMK A01 T02730178  RH  056%=      5-min Rain = 0
KBY1 132111Z 13006KT 27/18 A3011 RMK A01 T02730175  RH  055%=      5-min Rain = 0
KBY1 132112Z 11006KT 27/17 A3011 RMK A01 T02730174  RH  055%=      5-min Rain = 0
KBY1 132113Z 11003KT 27/17 A3011 RMK A01 T02740170  RH  053%=      5-min Rain = 0
KBY1 132114Z 10004KT 27/17 A3011 RMK A01 T02740171  RH  053%=      5-min Rain = 0
KBY1 132115Z 10005KT 28/17 A3011 RMK A01 T02750173  RH  054%=      5-min Rain = 0
KBY1 132116Z 12005KT 28/17 A3011 RMK A01 T02750174  RH  054%=      5-min Rain = 0
KBY1 132117Z 11007KT 28/17 A3011 RMK A01 T02750174  RH  054%=      5-min Rain = 0
KBY1 132118Z 13007KT 28/17 A3011 RMK A01 T02750173  RH  054%=      5-min Rain = 0
KBY1 132119Z 13008KT 27/17 A3011 RMK A01 T02740170  RH  053%=      5-min Rain = 0
KBY1 132120Z 14008KT 27/17 A3011 RMK A01 T02730171  RH  054%=      5-min Rain = 0
KBY1 132121Z 14008KT 27/17 A3011 RMK A01 T02720171  RH  054%=      5-min Rain = 0
KBY1 132122Z 14007KT 27/17 A301 RMK A01 T02710170  RH  054%=      5-min Rain = 0
KBY1 132123Z 13007KT 27/17 A301 RMK A01 T02700171  RH  055%=      5-min Rain = 0
KBY1 132124Z 12007KT 27/17 A301 RMK A01 T02700170  RH  054%=      5-min Rain = 0
KBY1 132125Z 12004KT 27/17 A301 RMK A01 T02700170  RH  055%=      5-min Rain = 0
KBY1 132126Z 13005KT 27/17 A301 RMK A01 T02690170  RH  054%=      5-min Rain = 0
KBY1 132127Z 12007KT 27/17 A301 RMK A01 T02700169  RH  054%=      5-min Rain = 0
KBY1 132128Z 13007KT 27/17 A301 RMK A01 T02700169  RH  054%=      5-min Rain = 0
KBY1 132129Z 12007KT 27/17 A301 RMK A01 T02700169  RH  054%=      5-min Rain = 0
KBY1 132130Z 12008KT 27/17 A301 RMK A01 T02710171  RH  054%=      5-min Rain = 0
KBY1 132131Z 12008KT 27/17 A301 RMK A01 T02710170  RH  054%=      5-min Rain = 0
KBY1 132132Z 13009KT 27/17 A301 RMK A01 T02700171  RH  054%=      5-min Rain = 0
KBY1 132133Z 13009KT 27/17 A3009 RMK A01 T02700171  RH  054%=      5-min Rain = 0
KBY1 132134Z 13009KT 27/17 A3009 RMK A01 T02700171  RH  055%=      5-min Rain = 0
KBY1 132135Z 13010KT 27/17 A3009 RMK A01 T02690170  RH  055%=      5-min Rain = 0
KBY1 132136Z 14009KT 27/17 A3009 RMK A01 T02680171  RH  055%=      5-min Rain = 0
KBY1 132137Z 13008KT 27/17 A3009 RMK A01 T02680170  RH  055%=      5-min Rain = 0
KBY1 132138Z 13007KT 27/17 A3009 RMK A01 T02680171  RH  055%=      5-min Rain = 0
KBY1 132139Z 11006KT 27/17 A3009 RMK A01 T02670172  RH  056%=      5-min Rain = 0
KBY1 132140Z 13007KT 27/17 A3009 RMK A01 T02670172  RH  056%=      5-min Rain = 0
KBY1 132141Z 11006KT 27/17 A3009 RMK A01 T02670171  RH  056%=      5-min Rain = 0
KBY1 132142Z 11007KT 27/17 A3009 RMK A01 T02670173  RH  056%=      5-min Rain = 0
KBY1 132143Z 12005KT 27/17 A3009 RMK A01 T02670173  RH  056%=      5-min Rain = 0
KBY1 132144Z 12005KT 27/17 A3009 RMK A01 T02670174  RH  057%=      5-min Rain = 0
KBY1 132145Z 12006KT 27/17 A3009 RMK A01 T02680174  RH  057%=      5-min Rain = 0
KBY1 132146Z 13006KT 27/17 A3009 RMK A01 T02680174  RH  056%=      5-min Rain = 0
KBY1 132147Z 14005KT 27/17 A3009 RMK A01 T02680174  RH  056%=      5-min Rain = 0
KBY1 132148Z 13004KT 27/18 A3009 RMK A01 T02680176  RH  057%=      5-min Rain = 0
KBY1 132149Z 15004KT 27/18 A3009 RMK A01 T02680176  RH  057%=      5-min Rain = 0
KBY1 132150Z 14004KT 27/18 A3009 RMK A01 T02690175  RH  056%=      5-min Rain = 0
KBY1 132151Z 14004KT 27/18 A301 RMK A01 T02690177  RH  057%=      5-min Rain = 0
KBY1 132152Z 14004KT 27/18 A301 RMK A01 T02690176  RH  057%=      5-min Rain = 0
KBY1 132153Z 15005KT 27/18 A301 RMK A01 T02700176  RH  057%=      5-min Rain = 0
KBY1 132154Z 14006KT 27/18 A301 RMK A01 T02700176  RH  056%=      5-min Rain = 0
KBY1 132155Z 16006KT 27/18 A301 RMK A01 T02710178  RH  057%=      5-min Rain = 0
KBY1 132156Z 16006KT 27/18 A301 RMK A01 T02710178  RH  057%=      5-min Rain = 0
KBY1 132157Z 15006KT 27/18 A301 RMK A01 T02710177  RH  056%=      5-min Rain = 0
KBY1 132158Z 16006KT 27/18 A301 RMK A01 T02710179  RH  057%=      5-min Rain = 0
KBY1 132159Z 16008KT 27/18 A3011 RMK A01 T02710179  RH  057%=      5-min Rain = 0
KBY1 132200Z 16008KT 27/18 A3011 RMK A01 T02710179  RH  057%=      5-min Rain = 0
KBY1 132201Z 17007KT 27/18 A3011 RMK A01 T02700181  RH  058%=      5-min Rain = 0
KBY1 132202Z 17008KT 27/18 A3011 RMK A01 T02700180  RH  058%=      5-min Rain = 0
KBY1 132203Z 17008KT 27/18 A3011 RMK A01 T02680178  RH  058%=      5-min Rain = 0
KBY1 132204Z 16005KT 27/18 A3011 RMK A01 T02670178  RH  058%=      5-min Rain = 0
KBY1 132205Z 17007KT 27/18 A3011 RMK A01 T02660178  RH  059%=      5-min Rain = 0
KBY1 132206Z 15007KT 27/18 A3011 RMK A01 T02660177  RH  058%=      5-min Rain = 0
KBY1 132207Z 16006KT 27/18 A3011 RMK A01 T02660177  RH  058%=      5-min Rain = 0
KBY1 132208Z 16005KT 27/18 A301 RMK A01 T02660176  RH  058%=      5-min Rain = 0
KBY1 132209Z 17005KT 27/17 A301 RMK A01 T02660173  RH  057%=      5-min Rain = 0
KBY1 132210Z 17004KT 27/17 A301 RMK A01 T02660174  RH  057%=      5-min Rain = 0
KBY1 132211Z 17003KT 27/18 A301 RMK A01 T02660175  RH  057%=      5-min Rain = 0
KBY1 132212Z 18003KT 27/18 A301 RMK A01 T02670177  RH  058%=      5-min Rain = 0
KBY1 132213Z 19004KT 27/18 A301 RMK A01 T02680177  RH  057%=      5-min Rain = 0
KBY1 132214Z 19004KT 27/18 A301 RMK A01 T02680177  RH  057%=      5-min Rain = 0
KBY1 132215Z 17004KT 27/18 A301 RMK A01 T02690177  RH  057%=      5-min Rain = 0
KBY1 132216Z 18004KT 27/18 A301 RMK A01 T02690176  RH  057%=      5-min Rain = 0
KBY1 132217Z 18003KT 27/18 A301 RMK A01 T02690176  RH  057%=      5-min Rain = 0
KBY1 132218Z 21002KT 27/18 A301 RMK A01 T02680177  RH  057%=      5-min Rain = 0
KBY1 132219Z 22002KT 27/18 A301 RMK A01 T02680177  RH  058%=      5-min Rain = 0
KBY1 132220Z 21003KT 27/18 A301 RMK A01 T02680177  RH  057%=      5-min Rain = 0
KBY1 132221Z 21003KT 27/18 A301 RMK A01 T02690176  RH  057%=      5-min Rain = 0
KBY1 132222Z 18002KT 27/18 A301 RMK A01 T02680175  RH  057%=      5-min Rain = 0
KBY1 132223Z 19001KT 27/18 A301 RMK A01 T02680175  RH  057%=      5-min Rain = 0
KBY1 132224Z 00000KT 27/18 A301 RMK A01 T02680175  RH  057%=      5-min Rain = 0
KBY1 132225Z 15000KT 27/18 A301 RMK A01 T02690176  RH  057%=      5-min Rain = 0
KBY1 132226Z 14003KT 27/18 A301 RMK A01 T02700177  RH  056%=      5-min Rain = 0
KBY1 132227Z 14005KT 27/18 A301 RMK A01 T02720177  RH  056%=      5-min Rain = 0
KBY1 132228Z 13005KT 27/18 A301 RMK A01 T02730177  RH  056%=      5-min Rain = 0
KBY1 132229Z 13008KT 27/18 A301 RMK A01 T02740176  RH  055%=      5-min Rain = 0
KBY1 132230Z 13008KT 27/18 A301 RMK A01 T02740176  RH  055%=      5-min Rain = 0
KBY1 132231Z 12010KT 28/18 A301 RMK A01 T02750175  RH  054%=      5-min Rain = 0
KBY1 132232Z 12010KT 28/17 A301 RMK A01 T02750173  RH  054%=      5-min Rain = 0
KBY1 132233Z 12008KT 27/17 A301 RMK A01 T02730173  RH  054%=      5-min Rain = 0
KBY1 132234Z 12008KT 27/17 A301 RMK A01 T02720173  RH  055%=      5-min Rain = 0
KBY1 132235Z 12009KT 27/17 A301 RMK A01 T02720173  RH  055%=      5-min Rain = 0
KBY1 132236Z 13009KT 27/17 A301 RMK A01 T02710172  RH  055%=      5-min Rain = 0
KBY1 132237Z 12009KT 27/17 A301 RMK A01 T02710173  RH  055%=      5-min Rain = 0
KBY1 132238Z 11010KT 27/17 A301 RMK A01 T02700174  RH  056%=      5-min Rain = 0
KBY1 132239Z 11010KT 27/17 A3011 RMK A01 T02700174  RH  056%=      5-min Rain = 0
KBY1 132240Z 12010KT 27/17 A3011 RMK A01 T02690173  RH  056%=      5-min Rain = 0
KBY1 132241Z 12009KT 27/17 A3011 RMK A01 T02670173  RH  056%=      5-min Rain = 0
KBY1 132242Z 11007KT 27/17 A3011 RMK A01 T02670173  RH  056%=      5-min Rain = 0
KBY1 132243Z 11006KT 27/18 A3011 RMK A01 T02680175  RH  057%=      5-min Rain = 0
KBY1 132244Z 11008KT 27/18 A3011 RMK A01 T02690175  RH  057%=      5-min Rain = 0
KBY1 132245Z 12007KT 27/18 A3011 RMK A01 T02680175  RH  056%=      5-min Rain = 0
KBY1 132246Z 13006KT 27/18 A3011 RMK A01 T02680176  RH  057%=      5-min Rain = 0
KBY1 132247Z 11010KT 27/17 A3011 RMK A01 T02680174  RH  056%=      5-min Rain = 0
KBY1 132248Z 11011KT 27/17 A3011 RMK A01 T02680173  RH  056%=      5-min Rain = 0
KBY1 132249Z 10011KT 27/17 A3011 RMK A01 T02670172  RH  056%=      5-min Rain = 0
KBY1 132250Z 10010KT 27/17 A3012 RMK A01 T02670170  RH  055%=      5-min Rain = 0
KBY1 132251Z 09008KT 27/17 A3012 RMK A01 T02670170  RH  055%=      5-min Rain = 0
KBY1 132252Z 09011KT 27/17 A3012 RMK A01 T02670168  RH  054%=      5-min Rain = 0
KBY1 132253Z 10012KT 27/17 A3012 RMK A01 T02660166  RH  054%=      5-min Rain = 0
KBY1 132254Z 10010KT 27/17 A3012 RMK A01 T02650167  RH  055%=      5-min Rain = 0
KBY1 132255Z 10009KT 26/17 A3012 RMK A01 T02630167  RH  056%=      5-min Rain = 0
KBY1 132256Z 11008KT 26/17 A3012 RMK A01 T02630169  RH  056%=      5-min Rain = 0
KBY1 132257Z 10010KT 26/17 A3012 RMK A01 T02640169  RH  056%=      5-min Rain = 0
KBY1 132258Z 11012KT 26/17 A3012 RMK A01 T02640167  RH  055%=      5-min Rain = 0
KBY1 132259Z 11009KT 26/17 A3012 RMK A01 T02640168  RH  055%=      5-min Rain = 0
KBY1 132300Z 11013KT 26/17 A3012 RMK A01 T02640168  RH  055%=      5-min Rain = 0
KBY1 132301Z 12015G20KT 26/17 A3012 RMK A01 T02620167  RH  056%=      5-min Rain = 0
KBY1 132302Z 12014KT 26/17 A3012 RMK A01 T02590168  RH  057%=      5-min Rain = 0
KBY1 132303Z 12013KT 26/17 A3012 RMK A01 T02570169  RH  058%=      5-min Rain = 0
KBY1 132304Z 11012G18KT 26/17 A3012 RMK A01 T02550170  RH  059%=      5-min Rain = 0
KBY1 132305Z 12012G17KT 26/17 A3012 RMK A01 T02550171  RH  060%=      5-min Rain = 0
KBY1 132306Z 12013G18KT 25/17 A3012 RMK A01 T02530172  RH  061%=      5-min Rain = 0
KBY1 132307Z 11014KT 25/17 A3012 RMK A01 T02530173  RH  061%=      5-min Rain = 0
KBY1 132308Z 11012KT 25/17 A3012 RMK A01 T02510174  RH  062%=      5-min Rain = 0
KBY1 132309Z 12013KT 25/18 A3012 RMK A01 T02500175  RH  063%=      5-min Rain = 0
KBY1 132310Z 12012KT 25/18 A3012 RMK A01 T02490175  RH  063%=      5-min Rain = 0
KBY1 132311Z 12011KT 25/18 A3012 RMK A01 T02480175  RH  064%=      5-min Rain = 0
KBY1 132312Z 12010KT 25/18 A3012 RMK A01 T02480176  RH  064%=      5-min Rain = 0
KBY1 132313Z 12011KT 25/18 A3012 RMK A01 T02480176  RH  064%=      5-min Rain = 0
KBY1 132314Z 13008KT 25/18 A3012 RMK A01 T02470176  RH  065%=      5-min Rain = 0
KBY1 132315Z 13008KT 25/18 A3012 RMK A01 T02470177  RH  065%=      5-min Rain = 0
KBY1 132316Z 12010KT 25/18 A3012 RMK A01 T02470177  RH  065%=      5-min Rain = 0
KBY1 132317Z 13008KT 25/18 A3012 RMK A01 T02480178  RH  065%=      5-min Rain = 0
KBY1 132318Z 13012KT 25/18 A3012 RMK A01 T02480177  RH  065%=      5-min Rain = 0
KBY1 132319Z 13011KT 25/18 A3012 RMK A01 T02480177  RH  065%=      5-min Rain = 0
KBY1 132320Z 13011KT 25/18 A3012 RMK A01 T02480178  RH  065%=      5-min Rain = 0
KBY1 132321Z 12009KT 25/18 A3012 RMK A01 T02480178  RH  065%=      5-min Rain = 0
KBY1 132322Z 12010G15KT 25/18 A3011 RMK A01 T02480178  RH  065%=      5-min Rain = 0
KBY1 132323Z 13012KT 25/18 A3011 RMK A01 T02480179  RH  065%=      5-min Rain = 0
KBY1 132324Z 12013KT 25/18 A3011 RMK A01 T02480179  RH  065%=      5-min Rain = 0
KBY1 132325Z 12012KT 25/18 A3011 RMK A01 T02480179  RH  065%=      5-min Rain = 0
KBY1 132326Z 11010KT 25/18 A3011 RMK A01 T02480180  RH  066%=      5-min Rain = 0
KBY1 132327Z 12009KT 25/18 A3011 RMK A01 T02480180  RH  066%=      5-min Rain = 0
KBY1 132328Z 12013KT 25/18 A3011 RMK A01 T02490180  RH  066%=      5-min Rain = 0
KBY1 132329Z 12011KT 25/18 A3011 RMK A01 T02480180  RH  066%=      5-min Rain = 0
KBY1 132330Z 12012KT 25/18 A3011 RMK A01 T02480181  RH  066%=      5-min Rain = 0
KBY1 132331Z 12012KT 25/18 A3011 RMK A01 T02480180  RH  066%=      5-min Rain = 0
KBY1 132332Z 12011KT 25/18 A301 RMK A01 T02480181  RH  066%=      5-min Rain = 0
KBY1 132333Z 14007KT 25/18 A301 RMK A01 T02480181  RH  066%=      5-min Rain = 0
KBY1 132334Z 13010KT 25/18 A301 RMK A01 T02490181  RH  066%=      5-min Rain = 0
KBY1 132335Z 13011KT 25/18 A301 RMK A01 T02490181  RH  066%=      5-min Rain = 0
KBY1 132336Z 13013KT 25/18 A301 RMK A01 T02480180  RH  066%=      5-min Rain = 0
KBY1 132337Z 13010KT 25/18 A301 RMK A01 T02470180  RH  066%=      5-min Rain = 0
KBY1 132338Z 14011KT 25/18 A301 RMK A01 T02470180  RH  066%=      5-min Rain = 0
KBY1 132339Z 13013KT 25/18 A301 RMK A01 T02470179  RH  066%=      5-min Rain = 0
KBY1 132340Z 14012KT 25/18 A301 RMK A01 T02470179  RH  066%=      5-min Rain = 0
KBY1 132341Z 13010KT 25/18 A301 RMK A01 T02460179  RH  066%=      5-min Rain = 0
KBY1 132342Z 14009KT 25/18 A301 RMK A01 T02460180  RH  066%=      5-min Rain = 0
KBY1 132343Z 13010KT 25/18 A301 RMK A01 T02470180  RH  066%=      5-min Rain = 0
KBY1 132344Z 14010KT 25/18 A301 RMK A01 T02480180  RH  066%=      5-min Rain = 0
KBY1 132345Z 13012KT 25/18 A301 RMK A01 T02480180  RH  066%=      5-min Rain = 0
KBY1 132346Z 12013KT 25/18 A301 RMK A01 T02480180  RH  066%=      5-min Rain = 0
KBY1 132347Z 13014KT 25/18 A301 RMK A01 T02470180  RH  066%=      5-min Rain = 0
KBY1 132348Z 13013KT 25/18 A301 RMK A01 T02460180  RH  066%=      5-min Rain = 0
KBY1 132349Z 14014KT 25/18 A301 RMK A01 T02460180  RH  067%=      5-min Rain = 0
KBY1 132350Z 13014KT 25/18 A301 RMK A01 T02450180  RH  067%=      5-min Rain = 0
KBY1 132351Z 13011KT 24/18 A301 RMK A01 T02440180  RH  068%=      5-min Rain = 0
KBY1 132352Z 14011KT 24/18 A301 RMK A01 T02440181  RH  068%=      5-min Rain = 0
KBY1 132353Z 13011KT 24/18 A301 RMK A01 T02440181  RH  068%=      5-min Rain = 0
KBY1 132354Z 12010KT 24/18 A301 RMK A01 T02440181  RH  068%=      5-min Rain = 0
KBY1 132355Z 12009KT 24/18 A301 RMK A01 T02440181  RH  068%=      5-min Rain = 0
KBY1 132356Z 12012KT 25/18 A301 RMK A01 T02450181  RH  067%=      5-min Rain = 0
KBY1 132357Z 12010KT 25/18 A301 RMK A01 T02450181  RH  067%=      5-min Rain = 0
KBY1 132358Z 13010KT 25/18 A301 RMK A01 T02450181  RH  067%=      5-min Rain = 0
KBY1 132359Z 13008KT 25/18 A301 RMK A01 T02450180  RH  067%=      5-min Rain = 0
KBY1 140000Z 12012KT 25/18 A301 RMK A01 T02450180  RH  067%=      5-min Rain = 0
KBY1 140001Z 12010KT 25/18 A301 RMK A01 T02450180  RH  067%=      5-min Rain = 0
KBY1 140002Z 13010KT 25/18 A301 RMK A01 T02450179  RH  067%=      5-min Rain = 0
KBY1 140003Z 12008G13KT 24/18 A301 RMK A01 T02440180  RH  067%=      5-min Rain = 0
KBY1 140004Z 13010KT 24/18 A3011 RMK A01 T02440179  RH  067%=      5-min Rain = 0
KBY1 140005Z 14007KT 25/18 A3011 RMK A01 T02450179  RH  067%=      5-min Rain = 0
KBY1 140006Z 14006KT 25/18 A3011 RMK A01 T02460181  RH  067%=      5-min Rain = 0
KBY1 140007Z 13008KT 25/18 A301 RMK A01 T02470180  RH  066%=      5-min Rain = 0
KBY1 140008Z 13006KT 25/18 A301 RMK A01 T02470179  RH  066%=      5-min Rain = 0
KBY1 140009Z 13006KT 25/18 A301 RMK A01 T02470179  RH  066%=      5-min Rain = 0
KBY1 140010Z 13007KT 25/18 A301 RMK A01 T02470179  RH  066%=      5-min Rain = 0
KBY1 140011Z 13007KT 25/18 A301 RMK A01 T02470179  RH  066%=      5-min Rain = 0
KBY1 140012Z 15006KT 25/18 A301 RMK A01 T02470179  RH  066%=      5-min Rain = 0
KBY1 140013Z 14006KT 25/18 A301 RMK A01 T02470178  RH  065%=      5-min Rain = 0
KBY1 140014Z 13005KT 25/18 A301 RMK A01 T02470177  RH  065%=      5-min Rain = 0
KBY1 140015Z 12005KT 25/18 A301 RMK A01 T02470178  RH  065%=      5-min Rain = 0
KBY1 140016Z 12006KT 25/18 A301 RMK A01 T02480178  RH  065%=      5-min Rain = 0
KBY1 140017Z 10005KT 25/18 A301 RMK A01 T02480177  RH  065%=      5-min Rain = 0
KBY1 140018Z 11004KT 25/18 A301 RMK A01 T02480178  RH  065%=      5-min Rain = 0
KBY1 140019Z 11004KT 25/18 A301 RMK A01 T02480178  RH  065%=      5-min Rain = 0
KBY1 140020Z 10005KT 25/18 A3011 RMK A01 T02490178  RH  065%=      5-min Rain = 0
KBY1 140021Z 11006KT 25/18 A3011 RMK A01 T02490176  RH  064%=      5-min Rain = 0
KBY1 140022Z 10004KT 25/18 A3011 RMK A01 T02490177  RH  064%=      5-min Rain = 0
KBY1 140023Z 10004KT 25/18 A3011 RMK A01 T02490178  RH  065%=      5-min Rain = 0
KBY1 140024Z 10004KT 25/18 A3011 RMK A01 T02490177  RH  064%=      5-min Rain = 0
KBY1 140025Z 10005KT 25/18 A3011 RMK A01 T02500178  RH  064%=      5-min Rain = 0
KBY1 140026Z 09005KT 25/18 A3011 RMK A01 T02500178  RH  064%=      5-min Rain = 0
KBY1 140027Z 10006KT 25/18 A3011 RMK A01 T02500177  RH  064%=      5-min Rain = 0
KBY1 140028Z 10005KT 25/18 A3011 RMK A01 T02490177  RH  064%=      5-min Rain = 0
KBY1 140029Z 10005KT 25/18 A3011 RMK A01 T02490177  RH  064%=      5-min Rain = 0
KBY1 140030Z 10006KT 25/18 A3011 RMK A01 T02490177  RH  064%=      5-min Rain = 0
KBY1 140031Z 11005KT 25/18 A3011 RMK A01 T02490178  RH  065%=      5-min Rain = 0
KBY1 140032Z 11006KT 25/18 A3011 RMK A01 T02490177  RH  064%=      5-min Rain = 0
KBY1 140033Z 10006KT 25/18 A3011 RMK A01 T02490176  RH  064%=      5-min Rain = 0
KBY1 140034Z 11006KT 25/18 A3011 RMK A01 T02490177  RH  064%=      5-min Rain = 0
KBY1 140035Z 11006KT 25/18 A3011 RMK A01 T02480177  RH  064%=      5-min Rain = 0
KBY1 140036Z 11005KT 25/18 A3011 RMK A01 T02480177  RH  065%=      5-min Rain = 0
KBY1 140037Z 11005KT 25/18 A3011 RMK A01 T02480177  RH  064%=      5-min Rain = 0
KBY1 140038Z 12005KT 25/18 A3012 RMK A01 T02480176  RH  064%=      5-min Rain = 0
KBY1 140039Z 11004KT 25/18 A3012 RMK A01 T02490177  RH  064%=      5-min Rain = 0
KBY1 140040Z 11006KT 25/18 A3012 RMK A01 T02490177  RH  064%=      5-min Rain = 0
KBY1 140041Z 11006KT 25/18 A3012 RMK A01 T02490177  RH  064%=      5-min Rain = 0
KBY1 140042Z 10005KT 25/18 A3012 RMK A01 T02480177  RH  064%=      5-min Rain = 0
KBY1 140043Z 11006KT 25/18 A3012 RMK A01 T02480176  RH  064%=      5-min Rain = 0
KBY1 140044Z 11006KT 25/18 A3012 RMK A01 T02480176  RH  064%=      5-min Rain = 0
KBY1 140045Z 11006KT 25/18 A3012 RMK A01 T02480176  RH  064%=      5-min Rain = 0
KBY1 140046Z 11006KT 25/18 A3012 RMK A01 T02480176  RH  064%=      5-min Rain = 0
KBY1 140047Z 11005KT 25/18 A3012 RMK A01 T02480175  RH  064%=      5-min Rain = 0
KBY1 140048Z 10005KT 25/18 A3011 RMK A01 T02480175  RH  064%=      5-min Rain = 0
KBY1 140049Z 11006KT 25/18 A3011 RMK A01 T02490175  RH  064%=      5-min Rain = 0
KBY1 140050Z 11006KT 25/18 A3011 RMK A01 T02490175  RH  063%=      5-min Rain = 0
KBY1 140051Z 11005KT 25/18 A3011 RMK A01 T02490175  RH  063%=      5-min Rain = 0
KBY1 140052Z 11005KT 25/18 A3011 RMK A01 T02490175  RH  063%=      5-min Rain = 0
KBY1 140053Z 11004KT 25/18 A3011 RMK A01 T02490175  RH  063%=      5-min Rain = 0
KBY1 140054Z 10005KT 25/18 A3011 RMK A01 T02490175  RH  063%=      5-min Rain = 0
KBY1 140055Z 11005KT 25/18 A3011 RMK A01 T02500175  RH  063%=      5-min Rain = 0
KBY1 140056Z 11005KT 25/18 A3011 RMK A01 T02500176  RH  063%=      5-min Rain = 0
KBY1 140057Z 11006KT 25/18 A3011 RMK A01 T02500176  RH  063%=      5-min Rain = 0
KBY1 140058Z 11006KT 25/18 A3011 RMK A01 T02500176  RH  063%=      5-min Rain = 0
KBY1 140059Z 10006KT 25/18 A3011 RMK A01 T02500176  RH  064%=      5-min Rain = 0
KBY1 140100Z 11006KT 25/18 A3011 RMK A01 T02500176  RH  064%=      5-min Rain = 0
KBY1 140101Z 10007KT 25/18 A3011 RMK A01 T02490176  RH  064%=      5-min Rain = 0
KBY1 140102Z 10005KT 25/18 A3011 RMK A01 T02490176  RH  064%=      5-min Rain = 0
KBY1 140103Z 10006KT 25/18 A3011 RMK A01 T02490176  RH  064%=      5-min Rain = 0
KBY1 140104Z 09006KT 25/18 A3011 RMK A01 T02490177  RH  064%=      5-min Rain = 0
KBY1 140105Z 10006KT 25/18 A3011 RMK A01 T02490177  RH  064%=      5-min Rain = 0
KBY1 140106Z 10006KT 25/18 A3011 RMK A01 T02490177  RH  064%=      5-min Rain = 0
KBY1 140107Z 10005KT 25/18 A3011 RMK A01 T02490177  RH  064%=      5-min Rain = 0
KBY1 140108Z 10005KT 25/18 A3011 RMK A01 T02490177  RH  064%=      5-min Rain = 0
KBY1 140109Z 10005KT 25/18 A3011 RMK A01 T02480176  RH  064%=      5-min Rain = 0
KBY1 140110Z 10005KT 25/18 A3011 RMK A01 T02480177  RH  064%=      5-min Rain = 0
KBY1 140111Z 10006KT 25/18 A3011 RMK A01 T02480177  RH  065%=      5-min Rain = 0
KBY1 140112Z 10005KT 25/18 A3011 RMK A01 T02490178  RH  065%=      5-min Rain = 0
KBY1 140113Z 10006KT 25/18 A3011 RMK A01 T02490178  RH  065%=      5-min Rain = 0
KBY1 140114Z 10007KT 25/18 A3011 RMK A01 T02490177  RH  065%=      5-min Rain = 0
KBY1 140115Z 09006KT 25/18 A3011 RMK A01 T02480177  RH  065%=      5-min Rain = 0
KBY1 140116Z 10006KT 25/18 A3011 RMK A01 T02480177  RH  065%=      5-min Rain = 0
KBY1 140117Z 10008KT 25/18 A3011 RMK A01 T02480177  RH  064%=      5-min Rain = 0
KBY1 140118Z 10007KT 25/18 A3011 RMK A01 T02480176  RH  064%=      5-min Rain = 0
KBY1 140119Z 11006KT 25/18 A3011 RMK A01 T02470176  RH  065%=      5-min Rain = 0
KBY1 140120Z 11005KT 25/18 A3011 RMK A01 T02470176  RH  065%=      5-min Rain = 0
KBY1 140121Z 11005KT 25/18 A3011 RMK A01 T02470176  RH  065%=      5-min Rain = 0
KBY1 140122Z 12004KT 25/18 A3011 RMK A01 T02470176  RH  065%=      5-min Rain = 0
KBY1 140123Z 12006KT 25/18 A3011 RMK A01 T02470176  RH  064%=      5-min Rain = 0
KBY1 140124Z 12005KT 25/18 A3011 RMK A01 T02470175  RH  064%=      5-min Rain = 0
KBY1 140125Z 12006KT 25/18 A3011 RMK A01 T02480175  RH  064%=      5-min Rain = 0
KBY1 140126Z 11006KT 25/18 A3011 RMK A01 T02480175  RH  064%=      5-min Rain = 0
KBY1 140127Z 11005KT 25/18 A3011 RMK A01 T02480175  RH  064%=      5-min Rain = 0
KBY1 140128Z 11005KT 25/18 A3011 RMK A01 T02480175  RH  064%=      5-min Rain = 0
KBY1 140129Z 11005KT 25/17 A3012 RMK A01 T02480174  RH  064%=      5-min Rain = 0
KBY1 140130Z 11005KT 25/17 A3012 RMK A01 T02480174  RH  064%=      5-min Rain = 0
KBY1 140131Z 11005KT 25/18 A3012 RMK A01 T02480175  RH  064%=      5-min Rain = 0
KBY1 140132Z 10004KT 25/18 A3012 RMK A01 T02480175  RH  064%=      5-min Rain = 0
KBY1 140133Z 11004KT 25/18 A3012 RMK A01 T02480175  RH  064%=      5-min Rain = 0
KBY1 140134Z 10004KT 25/17 A3012 RMK A01 T02470174  RH  064%=      5-min Rain = 0
KBY1 140135Z 12004KT 25/17 A3012 RMK A01 T02470174  RH  064%=      5-min Rain = 0
KBY1 140136Z 12004KT 25/17 A3012 RMK A01 T02470173  RH  064%=      5-min Rain = 0
KBY1 140137Z 12004KT 25/17 A3012 RMK A01 T02460173  RH  063%=      5-min Rain = 0
KBY1 140138Z 13004KT 25/17 A3012 RMK A01 T02470173  RH  063%=      5-min Rain = 0
KBY1 140139Z 14003KT 25/17 A3012 RMK A01 T02470172  RH  063%=      5-min Rain = 0
KBY1 140140Z 15004KT 25/17 A3012 RMK A01 T02470172  RH  063%=      5-min Rain = 0
KBY1 140141Z 13003KT 25/17 A3012 RMK A01 T02470172  RH  063%=      5-min Rain = 0
KBY1 140142Z 13003KT 25/17 A3012 RMK A01 T02460171  RH  063%=      5-min Rain = 0
KBY1 140143Z 13002KT 25/17 A3012 RMK A01 T02470170  RH  062%=      5-min Rain = 0
KBY1 140144Z 16004KT 25/17 A3012 RMK A01 T02470169  RH  062%=      5-min Rain = 0
KBY1 140145Z 15004KT 25/17 A3012 RMK A01 T02470168  RH  062%=      5-min Rain = 0
KBY1 140146Z 15004KT 25/17 A3012 RMK A01 T02470168  RH  061%=      5-min Rain = 0
KBY1 140147Z 16003KT 25/17 A3012 RMK A01 T02470167  RH  061%=      5-min Rain = 0
KBY1 140148Z 15003KT 25/17 A3012 RMK A01 T02480167  RH  061%=      5-min Rain = 0
KBY1 140149Z 14002KT 25/17 A3012 RMK A01 T02480167  RH  061%=      5-min Rain = 0
KBY1 140150Z 12001KT 25/17 A3012 RMK A01 T02480167  RH  061%=      5-min Rain = 0
KBY1 140151Z 13002KT 25/17 A3012 RMK A01 T02480167  RH  061%=      5-min Rain = 0
KBY1 140152Z 13000KT 25/17 A3012 RMK A01 T02480167  RH  061%=      5-min Rain = 0
KBY1 140153Z 15000KT 25/17 A3012 RMK A01 T02480167  RH  061%=      5-min Rain = 0
KBY1 140154Z 12001KT 25/17 A3012 RMK A01 T02480167  RH  061%=      5-min Rain = 0
KBY1 140155Z 12000KT 25/17 A3013 RMK A01 T02480167  RH  060%=      5-min Rain = 0
KBY1 140156Z 08000KT 25/17 A3013 RMK A01 T02480167  RH  061%=      5-min Rain = 0
KBY1 140157Z 05001KT 25/17 A3013 RMK A01 T02480167  RH  061%=      5-min Rain = 0
KBY1 140158Z 06001KT 25/17 A3013 RMK A01 T02470167  RH  061%=      5-min Rain = 0
KBY1 140159Z 06001KT 25/17 A3013 RMK A01 T02460167  RH  061%=      5-min Rain = 0
KBY1 140200Z 09000KT 25/17 A3012 RMK A01 T02460167  RH  062%=      5-min Rain = 0
KBY1 140201Z 35000KT 25/17 A3012 RMK A01 T02460168  RH  062%=      5-min Rain = 0
KBY1 140202Z 00000KT 25/17 A3012 RMK A01 T02450168  RH  062%=      5-min Rain = 0
KBY1 140203Z 00000KT 25/17 A3012 RMK A01 T02450168  RH  062%=      5-min Rain = 0
KBY1 140204Z 00000KT 24/17 A3012 RMK A01 T02440168  RH  062%=      5-min Rain = 0
KBY1 140205Z 00000KT 24/17 A3012 RMK A01 T02440168  RH  062%=      5-min Rain = 0
KBY1 140206Z 00000KT 24/17 A3012 RMK A01 T02440168  RH  062%=      5-min Rain = 0
KBY1 140207Z 00000KT 24/17 A3012 RMK A01 T02440168  RH  063%=      5-min Rain = 0
KBY1 140208Z 00000KT 24/17 A3012 RMK A01 T02430168  RH  063%=      5-min Rain = 0
KBY1 140209Z 20000KT 24/17 A3012 RMK A01 T02430168  RH  063%=      5-min Rain = 0
KBY1 140210Z 00000KT 24/17 A3012 RMK A01 T02430168  RH  063%=      5-min Rain = 0
KBY1 140211Z 00000KT 24/17 A3012 RMK A01 T02420168  RH  063%=      5-min Rain = 0
KBY1 140212Z 34000KT 24/17 A3012 RMK A01 T02410167  RH  063%=      5-min Rain = 0
KBY1 140213Z 00000KT 24/17 A3012 RMK A01 T02410167  RH  063%=      5-min Rain = 0
KBY1 140214Z 00000KT 24/17 A3012 RMK A01 T02400167  RH  063%=      5-min Rain = 0
KBY1 140215Z 00000KT 24/17 A3013 RMK A01 T02410167  RH  063%=      5-min Rain = 0
KBY1 140216Z 00000KT 24/17 A3013 RMK A01 T02410167  RH  064%=      5-min Rain = 0
KBY1 140217Z 00000KT 24/17 A3013 RMK A01 T02410168  RH  063%=      5-min Rain = 0
KBY1 140218Z 04000KT 24/17 A3013 RMK A01 T02410167  RH  063%=      5-min Rain = 0
KBY1 140219Z 03000KT 24/17 A3013 RMK A01 T02420167  RH  063%=      5-min Rain = 0
KBY1 140220Z 05000KT 24/17 A3013 RMK A01 T02420166  RH  063%=      5-min Rain = 0
KBY1 140221Z 04000KT 24/17 A3013 RMK A01 T02410166  RH  063%=      5-min Rain = 0
KBY1 140222Z 36000KT 24/17 A3013 RMK A01 T02420166  RH  063%=      5-min Rain = 0
KBY1 140223Z 00000KT 24/17 A3013 RMK A01 T02410166  RH  063%=      5-min Rain = 0
KBY1 140224Z 35000KT 24/17 A3013 RMK A01 T02410166  RH  063%=      5-min Rain = 0
KBY1 140225Z 34001KT 24/17 A3013 RMK A01 T02410166  RH  063%=      5-min Rain = 0
KBY1 140226Z 33002KT 24/17 A3013 RMK A01 T02410165  RH  063%=      5-min Rain = 0
KBY1 140227Z 32001KT 24/17 A3013 RMK A01 T02400165  RH  063%=      5-min Rain = 0
KBY1 140228Z 34001KT 24/17 A3013 RMK A01 T02400165  RH  063%=      5-min Rain = 0
KBY1 140229Z 32001KT 24/16 A3013 RMK A01 T02400163  RH  062%=      5-min Rain = 0
KBY1 140230Z 28001KT 24/16 A3013 RMK A01 T02410162  RH  062%=      5-min Rain = 0
KBY1 140231Z 29001KT 24/16 A3013 RMK A01 T02420162  RH  061%=      5-min Rain = 0
KBY1 140232Z 25001KT 24/16 A3013 RMK A01 T02420159  RH  060%=      5-min Rain = 0
KBY1 140233Z 21002KT 24/16 A3013 RMK A01 T02420156  RH  059%=      5-min Rain = 0
KBY1 140234Z 20001KT 24/16 A3013 RMK A01 T02430158  RH  059%=      5-min Rain = 0
KBY1 140235Z 16000KT 24/16 A3013 RMK A01 T02440157  RH  058%=      5-min Rain = 0
KBY1 140236Z 09000KT 24/16 A3013 RMK A01 T02440158  RH  059%=      5-min Rain = 0
KBY1 140237Z 09001KT 25/16 A3013 RMK A01 T02450161  RH  060%=      5-min Rain = 0
KBY1 140238Z 07001KT 24/16 A3013 RMK A01 T02440164  RH  061%=      5-min Rain = 0
KBY1 140239Z 08002KT 24/17 A3013 RMK A01 T02420165  RH  062%=      5-min Rain = 0
KBY1 140240Z 08003KT 24/17 A3013 RMK A01 T02390165  RH  063%=      5-min Rain = 0
KBY1 140241Z 11002KT 24/17 A3013 RMK A01 T02370165  RH  064%=      5-min Rain = 0
KBY1 140242Z 10002KT 24/16 A3013 RMK A01 T02360163  RH  063%=      5-min Rain = 0
KBY1 140243Z 08003KT 24/16 A3013 RMK A01 T02360163  RH  063%=      5-min Rain = 0
KBY1 140244Z 09002KT 24/16 A3013 RMK A01 T02370161  RH  062%=      5-min Rain = 0
KBY1 140245Z 10002KT 24/16 A3013 RMK A01 T02390162  RH  062%=      5-min Rain = 0
KBY1 140246Z 11002KT 24/16 A3013 RMK A01 T02400162  RH  062%=      5-min Rain = 0
KBY1 140247Z 11002KT 24/16 A3013 RMK A01 T02400160  RH  061%=      5-min Rain = 0
KBY1 140248Z 13003KT 24/16 A3013 RMK A01 T02400160  RH  061%=      5-min Rain = 0
KBY1 140249Z 14003KT 24/16 A3013 RMK A01 T02410159  RH  060%=      5-min Rain = 0
KBY1 140250Z 14004KT 24/16 A3013 RMK A01 T02410162  RH  061%=      5-min Rain = 0
KBY1 140251Z 13004KT 24/17 A3013 RMK A01 T02400165  RH  063%=      5-min Rain = 0
KBY1 140252Z 11003KT 24/17 A3013 RMK A01 T02380165  RH  063%=      5-min Rain = 0
KBY1 140253Z 13003KT 24/17 A3013 RMK A01 T02370166  RH  065%=      5-min Rain = 0
KBY1 140254Z 14003KT 24/17 A3013 RMK A01 T02360166  RH  065%=      5-min Rain = 0
KBY1 140255Z 15003KT 24/17 A3013 RMK A01 T02350165  RH  065%=      5-min Rain = 0
KBY1 140256Z 14003KT 24/17 A3013 RMK A01 T02350165  RH  065%=      5-min Rain = 0
KBY1 140257Z 15003KT 23/16 A3013 RMK A01 T02340164  RH  065%=      5-min Rain = 0
KBY1 140258Z 14002KT 23/16 A3013 RMK A01 T02340164  RH  065%=      5-min Rain = 0
KBY1 140259Z 14002KT 23/16 A3013 RMK A01 T02340164  RH  065%=      5-min Rain = 0
KBY1 140300Z 14001KT 23/16 A3013 RMK A01 T02340163  RH  064%=      5-min Rain = 0
KBY1 140301Z 00000KT 23/16 A3013 RMK A01 T02340163  RH  064%=      5-min Rain = 0
KBY1 140302Z 19001KT 23/16 A3013 RMK A01 T02340162  RH  064%=      5-min Rain = 0
KBY1 140303Z 21001KT 23/16 A3013 RMK A01 T02340162  RH  064%=      5-min Rain = 0
KBY1 140304Z 21001KT 23/16 A3013 RMK A01 T02340161  RH  064%=      5-min Rain = 0
KBY1 140305Z 24001KT 24/16 A3013 RMK A01 T02350161  RH  063%=      5-min Rain = 0
KBY1 140306Z 23002KT 24/16 A3013 RMK A01 T02350160  RH  063%=      5-min Rain = 0
KBY1 140307Z 23002KT 24/16 A3013 RMK A01 T02360158  RH  061%=      5-min Rain = 0
KBY1 140308Z 26002KT 24/16 A3014 RMK A01 T02380158  RH  061%=      5-min Rain = 0
KBY1 140309Z 26002KT 24/16 A3014 RMK A01 T02390158  RH  061%=      5-min Rain = 0
KBY1 140310Z 28004KT 24/16 A3014 RMK A01 T02400159  RH  060%=      5-min Rain = 0
KBY1 140311Z 28004KT 24/16 A3014 RMK A01 T02390158  RH  060%=      5-min Rain = 0
KBY1 140312Z 28004KT 24/16 A3014 RMK A01 T02380158  RH  061%=      5-min Rain = 0
KBY1 140313Z 29004KT 24/16 A3014 RMK A01 T02370158  RH  061%=      5-min Rain = 0
KBY1 140314Z 30003KT 24/16 A3014 RMK A01 T02370158  RH  061%=      5-min Rain = 0
KBY1 140315Z 30003KT 24/16 A3014 RMK A01 T02370158  RH  061%=      5-min Rain = 0
KBY1 140316Z 32002KT 24/16 A3014 RMK A01 T02360158  RH  062%=      5-min Rain = 0
KBY1 140317Z 33003KT 24/16 A3014 RMK A01 T02350158  RH  062%=      5-min Rain = 0
KBY1 140318Z 33002KT 23/16 A3014 RMK A01 T02330157  RH  062%=      5-min Rain = 0
KBY1 140319Z 34002KT 23/16 A3014 RMK A01 T02330157  RH  063%=      5-min Rain = 0
KBY1 140320Z 31001KT 23/16 A3014 RMK A01 T02320158  RH  063%=      5-min Rain = 0
KBY1 140321Z 30001KT 23/16 A3014 RMK A01 T02320157  RH  063%=      5-min Rain = 0
KBY1 140322Z 27000KT 23/16 A3014 RMK A01 T02320156  RH  062%=      5-min Rain = 0
KBY1 140323Z 17001KT 23/16 A3014 RMK A01 T02340157  RH  062%=      5-min Rain = 0
KBY1 140324Z 20002KT 24/16 A3014 RMK A01 T02360156  RH  061%=      5-min Rain = 0
KBY1 140325Z 16002KT 24/16 A3014 RMK A01 T02370158  RH  061%=      5-min Rain = 0
KBY1 140326Z 18000KT 24/16 A3014 RMK A01 T02350158  RH  062%=      5-min Rain = 0
KBY1 140327Z 20001KT 23/16 A3014 RMK A01 T02330158  RH  063%=      5-min Rain = 0
KBY1 140328Z 19000KT 23/16 A3014 RMK A01 T02320158  RH  063%=      5-min Rain = 0
KBY1 140329Z 00000KT 23/16 A3014 RMK A01 T02320158  RH  063%=      5-min Rain = 0
KBY1 140330Z 00000KT 23/16 A3014 RMK A01 T02310158  RH  064%=      5-min Rain = 0
KBY1 140331Z 00000KT 23/16 A3014 RMK A01 T02300158  RH  064%=      5-min Rain = 0
KBY1 140332Z 00000KT 23/16 A3014 RMK A01 T02290158  RH  064%=      5-min Rain = 0
KBY1 140333Z 02001KT 23/16 A3014 RMK A01 T02280157  RH  064%=      5-min Rain = 0
KBY1 140334Z 02001KT 23/16 A3014 RMK A01 T02270157  RH  065%=      5-min Rain = 0
KBY1 140335Z 02000KT 23/16 A3014 RMK A01 T02260157  RH  065%=      5-min Rain = 0
KBY1 140336Z 02001KT 23/16 A3014 RMK A01 T02260157  RH  065%=      5-min Rain = 0
KBY1 140337Z 05001KT 23/16 A3014 RMK A01 T02260158  RH  065%=      5-min Rain = 0
KBY1 140338Z 07001KT 23/16 A3014 RMK A01 T02260157  RH  065%=      5-min Rain = 0
KBY1 140339Z 09001KT 23/16 A3014 RMK A01 T02260158  RH  065%=      5-min Rain = 0
KBY1 140340Z 10000KT 23/16 A3014 RMK A01 T02260158  RH  065%=      5-min Rain = 0
KBY1 140341Z 10001KT 23/16 A3014 RMK A01 T02260158  RH  065%=      5-min Rain = 0
KBY1 140342Z 10000KT 23/16 A3014 RMK A01 T02260158  RH  065%=      5-min Rain = 0
KBY1 140343Z 00000KT 23/16 A3014 RMK A01 T02260158  RH  066%=      5-min Rain = 0
KBY1 140344Z 30000KT 23/16 A3015 RMK A01 T02250158  RH  065%=      5-min Rain = 0
KBY1 140345Z 28001KT 23/16 A3015 RMK A01 T02250158  RH  066%=      5-min Rain = 0
KBY1 140346Z 29001KT 23/16 A3015 RMK A01 T02250158  RH  066%=      5-min Rain = 0
KBY1 140347Z 29001KT 23/16 A3015 RMK A01 T02250157  RH  066%=      5-min Rain = 0
KBY1 140348Z 00000KT 23/16 A3015 RMK A01 T02250157  RH  065%=      5-min Rain = 0
KBY1 140349Z 27002KT 23/16 A3015 RMK A01 T02260158  RH  065%=      5-min Rain = 0
KBY1 140350Z 26004KT 23/16 A3015 RMK A01 T02260157  RH  065%=      5-min Rain = 0
KBY1 140351Z 26004KT 23/16 A3015 RMK A01 T02260157  RH  065%=      5-min Rain = 0
KBY1 140352Z 27004KT 23/16 A3015 RMK A01 T02280157  RH  064%=      5-min Rain = 0
KBY1 140353Z 28005KT 23/16 A3015 RMK A01 T02300158  RH  064%=      5-min Rain = 0
KBY1 140354Z 29005KT 23/16 A3015 RMK A01 T02320158  RH  063%=      5-min Rain = 0
KBY1 140355Z 29006KT 23/16 A3015 RMK A01 T02320159  RH  064%=      5-min Rain = 0
KBY1 140356Z 29004KT 23/16 A3015 RMK A01 T02310160  RH  064%=      5-min Rain = 0
KBY1 140357Z 29005KT 23/16 A3015 RMK A01 T02300160  RH  065%=      5-min Rain = 0
KBY1 140358Z 29005KT 23/16 A3015 RMK A01 T02300161  RH  065%=      5-min Rain = 0
KBY1 140359Z 29004KT 23/16 A3015 RMK A01 T02300162  RH  066%=      5-min Rain = 0
KBY1 140400Z 30005KT 23/16 A3015 RMK A01 T02300163  RH  066%=      5-min Rain = 0
KBY1 140401Z 30005KT 23/16 A3015 RMK A01 T02310163  RH  065%=      5-min Rain = 0
KBY1 140402Z 31005KT 23/16 A3015 RMK A01 T02320164  RH  066%=      5-min Rain = 0
KBY1 140403Z 31005KT 23/17 A3015 RMK A01 T02310166  RH  066%=      5-min Rain = 0
KBY1 140404Z 30005KT 23/17 A3015 RMK A01 T02300167  RH  067%=      5-min Rain = 0
KBY1 140405Z 29005KT 23/17 A3015 RMK A01 T02310168  RH  068%=      5-min Rain = 0
KBY1 140406Z 29006KT 23/17 A3015 RMK A01 T02300168  RH  068%=      5-min Rain = 0
KBY1 140407Z 30006KT 23/17 A3015 RMK A01 T02310168  RH  068%=      5-min Rain = 0
KBY1 140408Z 30006KT 23/17 A3015 RMK A01 T02320169  RH  068%=      5-min Rain = 0
KBY1 140409Z 30005KT 23/17 A3015 RMK A01 T02320169  RH  068%=      5-min Rain = 0
KBY1 140410Z 30005KT 23/17 A3016 RMK A01 T02330170  RH  068%=      5-min Rain = 0
KBY1 140411Z 30005KT 23/17 A3015 RMK A01 T02320170  RH  068%=      5-min Rain = 0
KBY1 140412Z 31003KT 23/17 A3015 RMK A01 T02310171  RH  069%=      5-min Rain = 0
KBY1 140413Z 30004KT 23/17 A3016 RMK A01 T02300171  RH  069%=      5-min Rain = 0
KBY1 140414Z 30004KT 23/17 A3016 RMK A01 T02300171  RH  070%=      5-min Rain = 0
KBY1 140415Z 30004KT 23/17 A3016 RMK A01 T02290172  RH  070%=      5-min Rain = 0
KBY1 140416Z 29004KT 23/17 A3016 RMK A01 T02290172  RH  070%=      5-min Rain = 0
KBY1 140417Z 29005KT 23/17 A3016 RMK A01 T02290172  RH  070%=      5-min Rain = 0
KBY1 140418Z 29004KT 23/17 A3016 RMK A01 T02290172  RH  070%=      5-min Rain = 0
KBY1 140419Z 29004KT 23/17 A3016 RMK A01 T02290172  RH  071%=      5-min Rain = 0
KBY1 140420Z 29004KT 23/17 A3016 RMK A01 T02280173  RH  071%=      5-min Rain = 0
KBY1 140421Z 28004KT 23/17 A3016 RMK A01 T02280174  RH  071%=      5-min Rain = 0
KBY1 140422Z 28004KT 23/17 A3017 RMK A01 T02270174  RH  072%=      5-min Rain = 0
KBY1 140423Z 27004KT 23/17 A3017 RMK A01 T02270174  RH  072%=      5-min Rain = 0
KBY1 140424Z 25004KT 23/17 A3017 RMK A01 T02260173  RH  072%=      5-min Rain = 0
KBY1 140425Z 26003KT 23/17 A3017 RMK A01 T02250173  RH  072%=      5-min Rain = 0
KBY1 140426Z 26003KT 22/17 A3017 RMK A01 T02240173  RH  073%=      5-min Rain = 0
KBY1 140427Z 26003KT 22/17 A3017 RMK A01 T02230172  RH  073%=      5-min Rain = 0
KBY1 140428Z 26003KT 22/17 A3017 RMK A01 T02240172  RH  072%=      5-min Rain = 0
KBY1 140429Z 26003KT 22/17 A3017 RMK A01 T02240171  RH  072%=      5-min Rain = 0
KBY1 140430Z 26003KT 23/17 A3017 RMK A01 T02250171  RH  071%=      5-min Rain = 0
KBY1 140431Z 26003KT 23/17 A3017 RMK A01 T02260171  RH  071%=      5-min Rain = 0
KBY1 140432Z 26004KT 23/17 A3017 RMK A01 T02260170  RH  071%=      5-min Rain = 0
KBY1 140433Z 26004KT 23/17 A3017 RMK A01 T02270169  RH  070%=      5-min Rain = 0
KBY1 140434Z 27006KT 23/17 A3017 RMK A01 T02280168  RH  069%=      5-min Rain = 0
KBY1 140435Z 27005KT 23/17 A3017 RMK A01 T02300167  RH  068%=      5-min Rain = 0
KBY1 140436Z 28004KT 23/17 A3017 RMK A01 T02320168  RH  067%=      5-min Rain = 0
KBY1 140437Z 28005KT 23/17 A3017 RMK A01 T02320167  RH  067%=      5-min Rain = 0
KBY1 140438Z 29005KT 23/17 A3017 RMK A01 T02320168  RH  067%=      5-min Rain = 0
KBY1 140439Z 27004KT 23/17 A3017 RMK A01 T02320168  RH  067%=      5-min Rain = 0
KBY1 140440Z 27006KT 23/17 A3017 RMK A01 T02320167  RH  067%=      5-min Rain = 0
KBY1 140441Z 26006KT 23/17 A3017 RMK A01 T02340167  RH  066%=      5-min Rain = 0
KBY1 140442Z 26006KT 23/17 A3017 RMK A01 T02340167  RH  066%=      5-min Rain = 0
KBY1 140443Z 26005KT 24/17 A3017 RMK A01 T02350167  RH  066%=      5-min Rain = 0
KBY1 140444Z 26004KT 24/17 A3017 RMK A01 T02350167  RH  066%=      5-min Rain = 0
KBY1 140445Z 25003KT 24/17 A3017 RMK A01 T02350167  RH  066%=      5-min Rain = 0
KBY1 140446Z 27003KT 24/17 A3017 RMK A01 T02350167  RH  066%=      5-min Rain = 0
KBY1 140447Z 29002KT 23/17 A3017 RMK A01 T02340167  RH  066%=      5-min Rain = 0
KBY1 140448Z 30002KT 23/17 A3017 RMK A01 T02340167  RH  066%=      5-min Rain = 0
KBY1 140449Z 30001KT 23/17 A3017 RMK A01 T02340167  RH  066%=      5-min Rain = 0
KBY1 140450Z 31002KT 23/17 A3017 RMK A01 T02330168  RH  067%=      5-min Rain = 0
KBY1 140451Z 29001KT 23/17 A3017 RMK A01 T02330168  RH  067%=      5-min Rain = 0
KBY1 140452Z 31001KT 23/17 A3017 RMK A01 T02330168  RH  067%=      5-min Rain = 0
KBY1 140453Z 27002KT 23/17 A3017 RMK A01 T02320168  RH  067%=      5-min Rain = 0
KBY1 140454Z 27001KT 23/17 A3017 RMK A01 T02310168  RH  067%=      5-min Rain = 0
KBY1 140455Z 27001KT 23/17 A3017 RMK A01 T02310168  RH  068%=      5-min Rain = 0
KBY1 140456Z 28001KT 23/17 A3017 RMK A01 T02310168  RH  068%=      5-min Rain = 0
KBY1 140457Z 30000KT 23/17 A3017 RMK A01 T02300168  RH  068%=      5-min Rain = 0
KBY1 140458Z 30000KT 23/17 A3017 RMK A01 T02300168  RH  068%=      5-min Rain = 0
KBY1 140459Z 00000KT 23/17 A3017 RMK A01 T02280167  RH  068%=      5-min Rain = 0

Page generated in 0.1668 seconds.